<?xml version="1.0" encoding="UTF-8" standalone="no" ?>
<gpx xmlns="http://www.topografix.com/GPX/1/1" xmlns:xsi="http://www.w3.org/2001/XMLSchema-instance" xsi:schemaLocation="http://www.topografix.com/GPX/1/1 http://www.topografix.com/GPX/1/1/gpx.xsd" version="1.1" creator="VisuGPX - https://www.visugpx.com">
  <metadata>
    <name>Rando dans la Forêt de Château-Charles</name>
    <desc><![CDATA[Sans difficultées, Facile.

Départ au Rond Point des Baboulées]]></desc>
  </metadata>
  <trk>
    <name><![CDATA[Rond point des Baboulées 05-JUIN-2012]]></name>
    <trkseg>
      <trkpt lat="46.28336" lon="2.95706">
        <ele>407.74</ele>
        <time>2012-06-05T12:40:26Z</time>
      </trkpt>
      <trkpt lat="46.28338" lon="2.95696">
        <ele>406.77</ele>
        <time>2012-06-05T12:41:53Z</time>
      </trkpt>
      <trkpt lat="46.28339" lon="2.95681">
        <ele>406.29</ele>
        <time>2012-06-05T12:42:09Z</time>
      </trkpt>
      <trkpt lat="46.28341" lon="2.95663">
        <ele>405.81</ele>
        <time>2012-06-05T12:42:23Z</time>
      </trkpt>
      <trkpt lat="46.28343" lon="2.95644">
        <ele>404.85</ele>
        <time>2012-06-05T12:42:36Z</time>
      </trkpt>
      <trkpt lat="46.28345" lon="2.95625">
        <ele>403.89</ele>
        <time>2012-06-05T12:42:46Z</time>
      </trkpt>
      <trkpt lat="46.28345" lon="2.95601">
        <ele>403.41</ele>
        <time>2012-06-05T12:42:58Z</time>
      </trkpt>
      <trkpt lat="46.28351" lon="2.95582">
        <ele>402.93</ele>
        <time>2012-06-05T12:43:12Z</time>
      </trkpt>
      <trkpt lat="46.28352" lon="2.95563">
        <ele>402.45</ele>
        <time>2012-06-05T12:43:24Z</time>
      </trkpt>
      <trkpt lat="46.28353" lon="2.95542">
        <ele>400.53</ele>
        <time>2012-06-05T12:43:41Z</time>
      </trkpt>
      <trkpt lat="46.28354" lon="2.9552">
        <ele>400.05</ele>
        <time>2012-06-05T12:43:52Z</time>
      </trkpt>
      <trkpt lat="46.28355" lon="2.95503">
        <ele>400.05</ele>
        <time>2012-06-05T12:44:03Z</time>
      </trkpt>
      <trkpt lat="46.28359" lon="2.95486">
        <ele>401.01</ele>
        <time>2012-06-05T12:44:16Z</time>
      </trkpt>
      <trkpt lat="46.28359" lon="2.95463">
        <ele>401.97</ele>
        <time>2012-06-05T12:44:31Z</time>
      </trkpt>
      <trkpt lat="46.28359" lon="2.95438">
        <ele>402.45</ele>
        <time>2012-06-05T12:44:45Z</time>
      </trkpt>
      <trkpt lat="46.2836" lon="2.95417">
        <ele>402.45</ele>
        <time>2012-06-05T12:44:58Z</time>
      </trkpt>
      <trkpt lat="46.28361" lon="2.954">
        <ele>402.93</ele>
        <time>2012-06-05T12:45:08Z</time>
      </trkpt>
      <trkpt lat="46.28354" lon="2.95385">
        <ele>402.93</ele>
        <time>2012-06-05T12:45:17Z</time>
      </trkpt>
      <trkpt lat="46.28344" lon="2.95376">
        <ele>401.97</ele>
        <time>2012-06-05T12:45:26Z</time>
      </trkpt>
      <trkpt lat="46.28333" lon="2.95371">
        <ele>401.49</ele>
        <time>2012-06-05T12:45:37Z</time>
      </trkpt>
      <trkpt lat="46.28316" lon="2.9536">
        <ele>401.01</ele>
        <time>2012-06-05T12:45:48Z</time>
      </trkpt>
      <trkpt lat="46.28303" lon="2.95352">
        <ele>401.01</ele>
        <time>2012-06-05T12:45:57Z</time>
      </trkpt>
      <trkpt lat="46.28294" lon="2.95344">
        <ele>400.53</ele>
        <time>2012-06-05T12:46:06Z</time>
      </trkpt>
      <trkpt lat="46.28286" lon="2.95333">
        <ele>401.01</ele>
        <time>2012-06-05T12:46:14Z</time>
      </trkpt>
      <trkpt lat="46.28279" lon="2.95325">
        <ele>402.45</ele>
        <time>2012-06-05T12:46:24Z</time>
      </trkpt>
      <trkpt lat="46.28275" lon="2.95313">
        <ele>402.93</ele>
        <time>2012-06-05T12:46:35Z</time>
      </trkpt>
      <trkpt lat="46.28269" lon="2.95298">
        <ele>403.41</ele>
        <time>2012-06-05T12:46:43Z</time>
      </trkpt>
      <trkpt lat="46.28264" lon="2.9529">
        <ele>403.89</ele>
        <time>2012-06-05T12:46:51Z</time>
      </trkpt>
      <trkpt lat="46.28259" lon="2.9528">
        <ele>404.37</ele>
        <time>2012-06-05T12:47:01Z</time>
      </trkpt>
      <trkpt lat="46.28255" lon="2.95266">
        <ele>404.85</ele>
        <time>2012-06-05T12:47:13Z</time>
      </trkpt>
      <trkpt lat="46.28253" lon="2.95242">
        <ele>405.33</ele>
        <time>2012-06-05T12:47:23Z</time>
      </trkpt>
      <trkpt lat="46.28257" lon="2.95229">
        <ele>405.33</ele>
        <time>2012-06-05T12:47:31Z</time>
      </trkpt>
      <trkpt lat="46.28258" lon="2.95214">
        <ele>405.33</ele>
        <time>2012-06-05T12:47:40Z</time>
      </trkpt>
      <trkpt lat="46.28255" lon="2.95197">
        <ele>406.29</ele>
        <time>2012-06-05T12:47:52Z</time>
      </trkpt>
      <trkpt lat="46.28251" lon="2.95179">
        <ele>406.29</ele>
        <time>2012-06-05T12:48:02Z</time>
      </trkpt>
      <trkpt lat="46.28254" lon="2.9516">
        <ele>406.29</ele>
        <time>2012-06-05T12:48:13Z</time>
      </trkpt>
      <trkpt lat="46.28261" lon="2.95139">
        <ele>406.29</ele>
        <time>2012-06-05T12:48:25Z</time>
      </trkpt>
      <trkpt lat="46.2826" lon="2.95125">
        <ele>406.77</ele>
        <time>2012-06-05T12:48:33Z</time>
      </trkpt>
      <trkpt lat="46.28258" lon="2.95108">
        <ele>406.77</ele>
        <time>2012-06-05T12:48:43Z</time>
      </trkpt>
      <trkpt lat="46.28258" lon="2.95088">
        <ele>407.26</ele>
        <time>2012-06-05T12:48:55Z</time>
      </trkpt>
      <trkpt lat="46.28259" lon="2.95069">
        <ele>406.77</ele>
        <time>2012-06-05T12:49:05Z</time>
      </trkpt>
      <trkpt lat="46.28259" lon="2.9505">
        <ele>406.77</ele>
        <time>2012-06-05T12:49:14Z</time>
      </trkpt>
      <trkpt lat="46.28258" lon="2.95037">
        <ele>406.77</ele>
        <time>2012-06-05T12:49:23Z</time>
      </trkpt>
      <trkpt lat="46.2826" lon="2.95033">
        <ele>403.89</ele>
        <time>2012-06-05T12:49:38Z</time>
      </trkpt>
      <trkpt lat="46.28268" lon="2.95042">
        <ele>401.01</ele>
        <time>2012-06-05T12:49:56Z</time>
      </trkpt>
      <trkpt lat="46.28278" lon="2.95042">
        <ele>401.97</ele>
        <time>2012-06-05T12:50:08Z</time>
      </trkpt>
      <trkpt lat="46.28293" lon="2.95049">
        <ele>401.49</ele>
        <time>2012-06-05T12:50:20Z</time>
      </trkpt>
      <trkpt lat="46.28302" lon="2.95057">
        <ele>402.45</ele>
        <time>2012-06-05T12:50:29Z</time>
      </trkpt>
      <trkpt lat="46.28311" lon="2.95062">
        <ele>402.93</ele>
        <time>2012-06-05T12:50:39Z</time>
      </trkpt>
      <trkpt lat="46.28321" lon="2.95067">
        <ele>403.41</ele>
        <time>2012-06-05T12:50:52Z</time>
      </trkpt>
      <trkpt lat="46.28334" lon="2.95074">
        <ele>403.89</ele>
        <time>2012-06-05T12:51:06Z</time>
      </trkpt>
      <trkpt lat="46.28349" lon="2.95082">
        <ele>404.37</ele>
        <time>2012-06-05T12:51:22Z</time>
      </trkpt>
      <trkpt lat="46.28362" lon="2.95088">
        <ele>404.37</ele>
        <time>2012-06-05T12:51:36Z</time>
      </trkpt>
      <trkpt lat="46.28376" lon="2.95098">
        <ele>404.85</ele>
        <time>2012-06-05T12:51:47Z</time>
      </trkpt>
      <trkpt lat="46.28392" lon="2.95102">
        <ele>404.85</ele>
        <time>2012-06-05T12:52:03Z</time>
      </trkpt>
      <trkpt lat="46.28404" lon="2.95105">
        <ele>405.33</ele>
        <time>2012-06-05T12:52:14Z</time>
      </trkpt>
      <trkpt lat="46.28415" lon="2.95106">
        <ele>405.33</ele>
        <time>2012-06-05T12:52:26Z</time>
      </trkpt>
      <trkpt lat="46.28428" lon="2.95113">
        <ele>407.26</ele>
        <time>2012-06-05T12:52:39Z</time>
      </trkpt>
      <trkpt lat="46.28446" lon="2.95117">
        <ele>407.74</ele>
        <time>2012-06-05T12:52:53Z</time>
      </trkpt>
      <trkpt lat="46.28461" lon="2.95121">
        <ele>408.22</ele>
        <time>2012-06-05T12:53:04Z</time>
      </trkpt>
      <trkpt lat="46.28477" lon="2.95125">
        <ele>408.7</ele>
        <time>2012-06-05T12:53:15Z</time>
      </trkpt>
      <trkpt lat="46.28488" lon="2.95128">
        <ele>409.18</ele>
        <time>2012-06-05T12:53:29Z</time>
      </trkpt>
      <trkpt lat="46.28498" lon="2.95135">
        <ele>409.66</ele>
        <time>2012-06-05T12:53:40Z</time>
      </trkpt>
      <trkpt lat="46.28512" lon="2.95136">
        <ele>410.14</ele>
        <time>2012-06-05T12:54:03Z</time>
      </trkpt>
      <trkpt lat="46.28529" lon="2.95141">
        <ele>410.62</ele>
        <time>2012-06-05T12:54:16Z</time>
      </trkpt>
      <trkpt lat="46.28545" lon="2.95151">
        <ele>410.62</ele>
        <time>2012-06-05T12:54:30Z</time>
      </trkpt>
      <trkpt lat="46.28558" lon="2.95155">
        <ele>410.14</ele>
        <time>2012-06-05T12:54:41Z</time>
      </trkpt>
      <trkpt lat="46.28569" lon="2.95162">
        <ele>410.14</ele>
        <time>2012-06-05T12:54:52Z</time>
      </trkpt>
      <trkpt lat="46.2858" lon="2.95167">
        <ele>411.1</ele>
        <time>2012-06-05T12:55:01Z</time>
      </trkpt>
      <trkpt lat="46.2859" lon="2.95169">
        <ele>411.1</ele>
        <time>2012-06-05T12:55:13Z</time>
      </trkpt>
      <trkpt lat="46.28602" lon="2.95174">
        <ele>411.58</ele>
        <time>2012-06-05T12:55:24Z</time>
      </trkpt>
      <trkpt lat="46.28613" lon="2.95175">
        <ele>412.54</ele>
        <time>2012-06-05T12:55:36Z</time>
      </trkpt>
      <trkpt lat="46.28626" lon="2.95179">
        <ele>413.02</ele>
        <time>2012-06-05T12:55:46Z</time>
      </trkpt>
      <trkpt lat="46.28638" lon="2.95185">
        <ele>413.02</ele>
        <time>2012-06-05T12:55:56Z</time>
      </trkpt>
      <trkpt lat="46.28653" lon="2.95191">
        <ele>413.02</ele>
        <time>2012-06-05T12:56:12Z</time>
      </trkpt>
      <trkpt lat="46.28671" lon="2.95196">
        <ele>413.02</ele>
        <time>2012-06-05T12:56:24Z</time>
      </trkpt>
      <trkpt lat="46.2869" lon="2.95192">
        <ele>412.54</ele>
        <time>2012-06-05T12:56:44Z</time>
      </trkpt>
      <trkpt lat="46.28707" lon="2.95196">
        <ele>413.5</ele>
        <time>2012-06-05T12:57:10Z</time>
      </trkpt>
      <trkpt lat="46.28726" lon="2.95206">
        <ele>413.02</ele>
        <time>2012-06-05T12:57:29Z</time>
      </trkpt>
      <trkpt lat="46.28738" lon="2.9522">
        <ele>413.02</ele>
        <time>2012-06-05T12:57:44Z</time>
      </trkpt>
      <trkpt lat="46.28749" lon="2.95242">
        <ele>412.54</ele>
        <time>2012-06-05T12:58:00Z</time>
      </trkpt>
      <trkpt lat="46.28749" lon="2.95259">
        <ele>413.02</ele>
        <time>2012-06-05T12:58:09Z</time>
      </trkpt>
      <trkpt lat="46.28753" lon="2.95274">
        <ele>412.06</ele>
        <time>2012-06-05T12:58:22Z</time>
      </trkpt>
      <trkpt lat="46.28762" lon="2.95288">
        <ele>411.58</ele>
        <time>2012-06-05T12:58:35Z</time>
      </trkpt>
      <trkpt lat="46.2878" lon="2.95303">
        <ele>411.1</ele>
        <time>2012-06-05T12:58:48Z</time>
      </trkpt>
      <trkpt lat="46.28792" lon="2.95312">
        <ele>411.1</ele>
        <time>2012-06-05T12:58:58Z</time>
      </trkpt>
      <trkpt lat="46.28802" lon="2.95322">
        <ele>410.62</ele>
        <time>2012-06-05T12:59:08Z</time>
      </trkpt>
      <trkpt lat="46.28812" lon="2.95328">
        <ele>411.1</ele>
        <time>2012-06-05T12:59:18Z</time>
      </trkpt>
      <trkpt lat="46.28819" lon="2.95346">
        <ele>410.62</ele>
        <time>2012-06-05T12:59:31Z</time>
      </trkpt>
      <trkpt lat="46.28831" lon="2.95355">
        <ele>410.62</ele>
        <time>2012-06-05T12:59:44Z</time>
      </trkpt>
      <trkpt lat="46.28843" lon="2.95363">
        <ele>409.66</ele>
        <time>2012-06-05T12:59:53Z</time>
      </trkpt>
      <trkpt lat="46.28854" lon="2.95368">
        <ele>409.66</ele>
        <time>2012-06-05T13:00:02Z</time>
      </trkpt>
      <trkpt lat="46.28865" lon="2.9537">
        <ele>409.66</ele>
        <time>2012-06-05T13:00:11Z</time>
      </trkpt>
      <trkpt lat="46.28876" lon="2.95383">
        <ele>408.7</ele>
        <time>2012-06-05T13:00:21Z</time>
      </trkpt>
      <trkpt lat="46.28886" lon="2.95392">
        <ele>408.22</ele>
        <time>2012-06-05T13:00:32Z</time>
      </trkpt>
      <trkpt lat="46.28894" lon="2.95411">
        <ele>407.74</ele>
        <time>2012-06-05T13:00:46Z</time>
      </trkpt>
      <trkpt lat="46.2891" lon="2.95426">
        <ele>406.77</ele>
        <time>2012-06-05T13:01:00Z</time>
      </trkpt>
      <trkpt lat="46.2892" lon="2.95436">
        <ele>406.29</ele>
        <time>2012-06-05T13:01:13Z</time>
      </trkpt>
      <trkpt lat="46.28925" lon="2.95438">
        <ele>406.29</ele>
        <time>2012-06-05T13:01:37Z</time>
      </trkpt>
      <trkpt lat="46.28939" lon="2.95463">
        <ele>405.81</ele>
        <time>2012-06-05T13:02:03Z</time>
      </trkpt>
      <trkpt lat="46.28951" lon="2.95482">
        <ele>405.33</ele>
        <time>2012-06-05T13:02:16Z</time>
      </trkpt>
      <trkpt lat="46.28967" lon="2.95498">
        <ele>404.85</ele>
        <time>2012-06-05T13:02:32Z</time>
      </trkpt>
      <trkpt lat="46.28982" lon="2.95503">
        <ele>404.37</ele>
        <time>2012-06-05T13:02:46Z</time>
      </trkpt>
      <trkpt lat="46.28992" lon="2.95515">
        <ele>403.41</ele>
        <time>2012-06-05T13:02:57Z</time>
      </trkpt>
      <trkpt lat="46.29003" lon="2.9552">
        <ele>402.45</ele>
        <time>2012-06-05T13:03:10Z</time>
      </trkpt>
      <trkpt lat="46.29016" lon="2.95532">
        <ele>401.49</ele>
        <time>2012-06-05T13:03:21Z</time>
      </trkpt>
      <trkpt lat="46.29028" lon="2.9555">
        <ele>400.53</ele>
        <time>2012-06-05T13:03:38Z</time>
      </trkpt>
      <trkpt lat="46.2904" lon="2.95565">
        <ele>399.57</ele>
        <time>2012-06-05T13:03:52Z</time>
      </trkpt>
      <trkpt lat="46.29056" lon="2.95563">
        <ele>397.64</ele>
        <time>2012-06-05T13:04:05Z</time>
      </trkpt>
      <trkpt lat="46.29071" lon="2.95555">
        <ele>396.2</ele>
        <time>2012-06-05T13:04:15Z</time>
      </trkpt>
      <trkpt lat="46.29089" lon="2.95549">
        <ele>395.72</ele>
        <time>2012-06-05T13:04:33Z</time>
      </trkpt>
      <trkpt lat="46.29098" lon="2.95556">
        <ele>395.24</ele>
        <time>2012-06-05T13:05:40Z</time>
      </trkpt>
      <trkpt lat="46.29102" lon="2.95568">
        <ele>397.16</ele>
        <time>2012-06-05T13:06:07Z</time>
      </trkpt>
      <trkpt lat="46.29104" lon="2.9559">
        <ele>398.6</ele>
        <time>2012-06-05T13:06:25Z</time>
      </trkpt>
      <trkpt lat="46.29111" lon="2.95598">
        <ele>400.05</ele>
        <time>2012-06-05T13:06:36Z</time>
      </trkpt>
      <trkpt lat="46.29122" lon="2.95597">
        <ele>401.01</ele>
        <time>2012-06-05T13:06:47Z</time>
      </trkpt>
      <trkpt lat="46.29133" lon="2.95602">
        <ele>401.49</ele>
        <time>2012-06-05T13:06:57Z</time>
      </trkpt>
      <trkpt lat="46.29143" lon="2.95606">
        <ele>401.97</ele>
        <time>2012-06-05T13:07:07Z</time>
      </trkpt>
      <trkpt lat="46.29155" lon="2.95607">
        <ele>401.97</ele>
        <time>2012-06-05T13:07:17Z</time>
      </trkpt>
      <trkpt lat="46.2916" lon="2.95597">
        <ele>401.49</ele>
        <time>2012-06-05T13:07:45Z</time>
      </trkpt>
      <trkpt lat="46.2916" lon="2.95578">
        <ele>401.01</ele>
        <time>2012-06-05T13:08:02Z</time>
      </trkpt>
      <trkpt lat="46.29165" lon="2.95547">
        <ele>400.53</ele>
        <time>2012-06-05T13:08:22Z</time>
      </trkpt>
      <trkpt lat="46.29169" lon="2.95526">
        <ele>401.01</ele>
        <time>2012-06-05T13:08:40Z</time>
      </trkpt>
      <trkpt lat="46.29173" lon="2.95496">
        <ele>401.97</ele>
        <time>2012-06-05T13:08:57Z</time>
      </trkpt>
      <trkpt lat="46.2918" lon="2.95464">
        <ele>402.45</ele>
        <time>2012-06-05T13:09:15Z</time>
      </trkpt>
      <trkpt lat="46.29185" lon="2.95441">
        <ele>402.93</ele>
        <time>2012-06-05T13:09:37Z</time>
      </trkpt>
      <trkpt lat="46.29191" lon="2.95416">
        <ele>402.93</ele>
        <time>2012-06-05T13:10:19Z</time>
      </trkpt>
      <trkpt lat="46.29208" lon="2.95408">
        <ele>403.89</ele>
        <time>2012-06-05T13:10:39Z</time>
      </trkpt>
      <trkpt lat="46.29228" lon="2.95399">
        <ele>404.37</ele>
        <time>2012-06-05T13:11:07Z</time>
      </trkpt>
      <trkpt lat="46.29248" lon="2.95391">
        <ele>404.85</ele>
        <time>2012-06-05T13:11:20Z</time>
      </trkpt>
      <trkpt lat="46.29268" lon="2.95387">
        <ele>405.81</ele>
        <time>2012-06-05T13:11:53Z</time>
      </trkpt>
      <trkpt lat="46.29285" lon="2.9538">
        <ele>405.81</ele>
        <time>2012-06-05T13:12:19Z</time>
      </trkpt>
      <trkpt lat="46.29302" lon="2.95368">
        <ele>406.77</ele>
        <time>2012-06-05T13:12:48Z</time>
      </trkpt>
      <trkpt lat="46.29339" lon="2.9536">
        <ele>407.26</ele>
        <time>2012-06-05T13:13:03Z</time>
      </trkpt>
      <trkpt lat="46.29363" lon="2.95351">
        <ele>408.22</ele>
        <time>2012-06-05T13:13:28Z</time>
      </trkpt>
      <trkpt lat="46.29377" lon="2.95351">
        <ele>410.62</ele>
        <time>2012-06-05T13:13:59Z</time>
      </trkpt>
      <trkpt lat="46.29403" lon="2.95344">
        <ele>412.54</ele>
        <time>2012-06-05T13:14:35Z</time>
      </trkpt>
      <trkpt lat="46.29436" lon="2.9533">
        <ele>413.5</ele>
        <time>2012-06-05T13:14:51Z</time>
      </trkpt>
      <trkpt lat="46.29462" lon="2.95316">
        <ele>416.39</ele>
        <time>2012-06-05T13:15:23Z</time>
      </trkpt>
      <trkpt lat="46.29492" lon="2.95286">
        <ele>418.31</ele>
        <time>2012-06-05T13:15:49Z</time>
      </trkpt>
      <trkpt lat="46.29504" lon="2.95273">
        <ele>419.75</ele>
        <time>2012-06-05T13:16:39Z</time>
      </trkpt>
      <trkpt lat="46.29518" lon="2.95264">
        <ele>421.19</ele>
        <time>2012-06-05T13:16:56Z</time>
      </trkpt>
      <trkpt lat="46.29541" lon="2.95244">
        <ele>423.6</ele>
        <time>2012-06-05T13:17:21Z</time>
      </trkpt>
      <trkpt lat="46.29556" lon="2.95232">
        <ele>425.04</ele>
        <time>2012-06-05T13:17:47Z</time>
      </trkpt>
      <trkpt lat="46.29572" lon="2.95222">
        <ele>426.96</ele>
        <time>2012-06-05T13:18:07Z</time>
      </trkpt>
      <trkpt lat="46.29593" lon="2.95221">
        <ele>428.4</ele>
        <time>2012-06-05T13:18:28Z</time>
      </trkpt>
      <trkpt lat="46.29619" lon="2.95218">
        <ele>430.33</ele>
        <time>2012-06-05T13:18:48Z</time>
      </trkpt>
      <trkpt lat="46.29633" lon="2.95206">
        <ele>431.77</ele>
        <time>2012-06-05T13:20:03Z</time>
      </trkpt>
      <trkpt lat="46.2965" lon="2.9519">
        <ele>432.73</ele>
        <time>2012-06-05T13:20:27Z</time>
      </trkpt>
      <trkpt lat="46.29671" lon="2.95159">
        <ele>434.17</ele>
        <time>2012-06-05T13:20:46Z</time>
      </trkpt>
      <trkpt lat="46.29681" lon="2.95143">
        <ele>436.1</ele>
        <time>2012-06-05T13:21:37Z</time>
      </trkpt>
      <trkpt lat="46.2968" lon="2.95135">
        <ele>436.58</ele>
        <time>2012-06-05T13:23:24Z</time>
      </trkpt>
      <trkpt lat="46.29682" lon="2.95123">
        <ele>436.58</ele>
        <time>2012-06-05T13:23:42Z</time>
      </trkpt>
      <trkpt lat="46.29688" lon="2.951">
        <ele>437.54</ele>
        <time>2012-06-05T13:23:56Z</time>
      </trkpt>
      <trkpt lat="46.29694" lon="2.95079">
        <ele>439.46</ele>
        <time>2012-06-05T13:24:11Z</time>
      </trkpt>
      <trkpt lat="46.29702" lon="2.95044">
        <ele>440.9</ele>
        <time>2012-06-05T13:24:34Z</time>
      </trkpt>
      <trkpt lat="46.29703" lon="2.9501">
        <ele>442.34</ele>
        <time>2012-06-05T13:25:08Z</time>
      </trkpt>
      <trkpt lat="46.29709" lon="2.94982">
        <ele>444.27</ele>
        <time>2012-06-05T13:25:31Z</time>
      </trkpt>
      <trkpt lat="46.29714" lon="2.94952">
        <ele>445.71</ele>
        <time>2012-06-05T13:26:01Z</time>
      </trkpt>
      <trkpt lat="46.2972" lon="2.94918">
        <ele>448.11</ele>
        <time>2012-06-05T13:26:26Z</time>
      </trkpt>
      <trkpt lat="46.29726" lon="2.94895">
        <ele>448.59</ele>
        <time>2012-06-05T13:26:43Z</time>
      </trkpt>
      <trkpt lat="46.29725" lon="2.94873">
        <ele>449.07</ele>
        <time>2012-06-05T13:27:03Z</time>
      </trkpt>
      <trkpt lat="46.29726" lon="2.94849">
        <ele>450.03</ele>
        <time>2012-06-05T13:27:23Z</time>
      </trkpt>
      <trkpt lat="46.29732" lon="2.94829">
        <ele>451</ele>
        <time>2012-06-05T13:27:39Z</time>
      </trkpt>
      <trkpt lat="46.29743" lon="2.9483">
        <ele>451.48</ele>
        <time>2012-06-05T13:28:20Z</time>
      </trkpt>
      <trkpt lat="46.29758" lon="2.94841">
        <ele>450.52</ele>
        <time>2012-06-05T13:28:47Z</time>
      </trkpt>
      <trkpt lat="46.2978" lon="2.94855">
        <ele>450.03</ele>
        <time>2012-06-05T13:29:10Z</time>
      </trkpt>
      <trkpt lat="46.29804" lon="2.94869">
        <ele>448.11</ele>
        <time>2012-06-05T13:29:44Z</time>
      </trkpt>
      <trkpt lat="46.2983" lon="2.94881">
        <ele>447.63</ele>
        <time>2012-06-05T13:30:10Z</time>
      </trkpt>
      <trkpt lat="46.29861" lon="2.94887">
        <ele>446.19</ele>
        <time>2012-06-05T13:30:50Z</time>
      </trkpt>
      <trkpt lat="46.29881" lon="2.94869">
        <ele>445.23</ele>
        <time>2012-06-05T13:31:05Z</time>
      </trkpt>
      <trkpt lat="46.29889" lon="2.94853">
        <ele>444.75</ele>
        <time>2012-06-05T13:31:15Z</time>
      </trkpt>
      <trkpt lat="46.2989" lon="2.94856">
        <ele>444.75</ele>
        <time>2012-06-05T13:31:50Z</time>
      </trkpt>
      <trkpt lat="46.29883" lon="2.94874">
        <ele>445.71</ele>
        <time>2012-06-05T13:32:37Z</time>
      </trkpt>
      <trkpt lat="46.29884" lon="2.94867">
        <ele>445.23</ele>
        <time>2012-06-05T13:34:13Z</time>
      </trkpt>
      <trkpt lat="46.29892" lon="2.94855">
        <ele>445.23</ele>
        <time>2012-06-05T13:34:23Z</time>
      </trkpt>
      <trkpt lat="46.299" lon="2.9484">
        <ele>444.75</ele>
        <time>2012-06-05T13:34:33Z</time>
      </trkpt>
      <trkpt lat="46.29907" lon="2.94826">
        <ele>444.27</ele>
        <time>2012-06-05T13:34:42Z</time>
      </trkpt>
      <trkpt lat="46.29914" lon="2.94813">
        <ele>444.27</ele>
        <time>2012-06-05T13:34:51Z</time>
      </trkpt>
      <trkpt lat="46.29921" lon="2.948">
        <ele>444.75</ele>
        <time>2012-06-05T13:35:00Z</time>
      </trkpt>
      <trkpt lat="46.29928" lon="2.94789">
        <ele>444.75</ele>
        <time>2012-06-05T13:35:09Z</time>
      </trkpt>
      <trkpt lat="46.29935" lon="2.94779">
        <ele>445.23</ele>
        <time>2012-06-05T13:35:17Z</time>
      </trkpt>
      <trkpt lat="46.29942" lon="2.94768">
        <ele>445.23</ele>
        <time>2012-06-05T13:35:25Z</time>
      </trkpt>
      <trkpt lat="46.29949" lon="2.9476">
        <ele>445.23</ele>
        <time>2012-06-05T13:35:33Z</time>
      </trkpt>
      <trkpt lat="46.29955" lon="2.94749">
        <ele>445.71</ele>
        <time>2012-06-05T13:35:41Z</time>
      </trkpt>
      <trkpt lat="46.29962" lon="2.94738">
        <ele>445.71</ele>
        <time>2012-06-05T13:35:48Z</time>
      </trkpt>
      <trkpt lat="46.29968" lon="2.94727">
        <ele>445.71</ele>
        <time>2012-06-05T13:35:56Z</time>
      </trkpt>
      <trkpt lat="46.29974" lon="2.94717">
        <ele>445.71</ele>
        <time>2012-06-05T13:36:04Z</time>
      </trkpt>
      <trkpt lat="46.29981" lon="2.94705">
        <ele>446.19</ele>
        <time>2012-06-05T13:36:12Z</time>
      </trkpt>
      <trkpt lat="46.29988" lon="2.94694">
        <ele>446.19</ele>
        <time>2012-06-05T13:36:21Z</time>
      </trkpt>
      <trkpt lat="46.29994" lon="2.94683">
        <ele>447.15</ele>
        <time>2012-06-05T13:36:29Z</time>
      </trkpt>
      <trkpt lat="46.3" lon="2.94673">
        <ele>447.15</ele>
        <time>2012-06-05T13:36:37Z</time>
      </trkpt>
      <trkpt lat="46.30006" lon="2.94663">
        <ele>447.63</ele>
        <time>2012-06-05T13:36:45Z</time>
      </trkpt>
      <trkpt lat="46.30012" lon="2.94652">
        <ele>447.15</ele>
        <time>2012-06-05T13:36:52Z</time>
      </trkpt>
      <trkpt lat="46.30017" lon="2.94639">
        <ele>448.11</ele>
        <time>2012-06-05T13:37:00Z</time>
      </trkpt>
      <trkpt lat="46.3002" lon="2.94625">
        <ele>448.11</ele>
        <time>2012-06-05T13:37:08Z</time>
      </trkpt>
      <trkpt lat="46.30023" lon="2.9461">
        <ele>448.59</ele>
        <time>2012-06-05T13:37:16Z</time>
      </trkpt>
      <trkpt lat="46.30024" lon="2.94594">
        <ele>449.07</ele>
        <time>2012-06-05T13:37:25Z</time>
      </trkpt>
      <trkpt lat="46.30025" lon="2.94578">
        <ele>449.07</ele>
        <time>2012-06-05T13:37:35Z</time>
      </trkpt>
      <trkpt lat="46.30027" lon="2.94563">
        <ele>449.55</ele>
        <time>2012-06-05T13:37:43Z</time>
      </trkpt>
      <trkpt lat="46.30029" lon="2.94547">
        <ele>450.03</ele>
        <time>2012-06-05T13:37:51Z</time>
      </trkpt>
      <trkpt lat="46.30031" lon="2.94534">
        <ele>450.03</ele>
        <time>2012-06-05T13:37:59Z</time>
      </trkpt>
      <trkpt lat="46.30033" lon="2.9452">
        <ele>450.52</ele>
        <time>2012-06-05T13:38:08Z</time>
      </trkpt>
      <trkpt lat="46.30035" lon="2.94505">
        <ele>451</ele>
        <time>2012-06-05T13:38:17Z</time>
      </trkpt>
      <trkpt lat="46.30037" lon="2.94489">
        <ele>451.48</ele>
        <time>2012-06-05T13:38:27Z</time>
      </trkpt>
      <trkpt lat="46.30039" lon="2.94473">
        <ele>451.96</ele>
        <time>2012-06-05T13:38:36Z</time>
      </trkpt>
      <trkpt lat="46.30043" lon="2.94459">
        <ele>452.44</ele>
        <time>2012-06-05T13:38:44Z</time>
      </trkpt>
      <trkpt lat="46.30047" lon="2.94445">
        <ele>452.92</ele>
        <time>2012-06-05T13:38:53Z</time>
      </trkpt>
      <trkpt lat="46.30049" lon="2.94431">
        <ele>453.88</ele>
        <time>2012-06-05T13:39:01Z</time>
      </trkpt>
      <trkpt lat="46.30052" lon="2.94417">
        <ele>454.36</ele>
        <time>2012-06-05T13:39:10Z</time>
      </trkpt>
      <trkpt lat="46.30055" lon="2.94403">
        <ele>455.32</ele>
        <time>2012-06-05T13:39:18Z</time>
      </trkpt>
      <trkpt lat="46.30056" lon="2.9439">
        <ele>455.8</ele>
        <time>2012-06-05T13:39:26Z</time>
      </trkpt>
      <trkpt lat="46.30059" lon="2.94376">
        <ele>456.28</ele>
        <time>2012-06-05T13:39:34Z</time>
      </trkpt>
      <trkpt lat="46.30061" lon="2.94361">
        <ele>456.76</ele>
        <time>2012-06-05T13:39:43Z</time>
      </trkpt>
      <trkpt lat="46.30064" lon="2.94348">
        <ele>456.76</ele>
        <time>2012-06-05T13:39:51Z</time>
      </trkpt>
      <trkpt lat="46.30065" lon="2.94334">
        <ele>457.72</ele>
        <time>2012-06-05T13:40:02Z</time>
      </trkpt>
      <trkpt lat="46.30069" lon="2.94317">
        <ele>458.69</ele>
        <time>2012-06-05T13:40:13Z</time>
      </trkpt>
      <trkpt lat="46.30073" lon="2.94302">
        <ele>459.17</ele>
        <time>2012-06-05T13:40:22Z</time>
      </trkpt>
      <trkpt lat="46.30076" lon="2.94286">
        <ele>459.65</ele>
        <time>2012-06-05T13:40:32Z</time>
      </trkpt>
      <trkpt lat="46.3008" lon="2.94271">
        <ele>460.61</ele>
        <time>2012-06-05T13:40:40Z</time>
      </trkpt>
      <trkpt lat="46.30083" lon="2.94255">
        <ele>460.61</ele>
        <time>2012-06-05T13:40:51Z</time>
      </trkpt>
      <trkpt lat="46.30087" lon="2.94239">
        <ele>461.57</ele>
        <time>2012-06-05T13:41:00Z</time>
      </trkpt>
      <trkpt lat="46.3009" lon="2.94224">
        <ele>461.09</ele>
        <time>2012-06-05T13:41:09Z</time>
      </trkpt>
      <trkpt lat="46.30091" lon="2.94209">
        <ele>461.57</ele>
        <time>2012-06-05T13:41:19Z</time>
      </trkpt>
      <trkpt lat="46.30092" lon="2.94195">
        <ele>462.53</ele>
        <time>2012-06-05T13:41:29Z</time>
      </trkpt>
      <trkpt lat="46.30096" lon="2.9418">
        <ele>462.53</ele>
        <time>2012-06-05T13:41:37Z</time>
      </trkpt>
      <trkpt lat="46.30099" lon="2.94165">
        <ele>463.01</ele>
        <time>2012-06-05T13:41:46Z</time>
      </trkpt>
      <trkpt lat="46.30102" lon="2.94147">
        <ele>463.01</ele>
        <time>2012-06-05T13:41:57Z</time>
      </trkpt>
      <trkpt lat="46.30105" lon="2.94129">
        <ele>462.53</ele>
        <time>2012-06-05T13:42:08Z</time>
      </trkpt>
      <trkpt lat="46.3011" lon="2.94114">
        <ele>463.49</ele>
        <time>2012-06-05T13:42:18Z</time>
      </trkpt>
      <trkpt lat="46.30117" lon="2.94101">
        <ele>463.97</ele>
        <time>2012-06-05T13:42:27Z</time>
      </trkpt>
      <trkpt lat="46.30124" lon="2.94093">
        <ele>463.97</ele>
        <time>2012-06-05T13:42:35Z</time>
      </trkpt>
      <trkpt lat="46.30132" lon="2.94081">
        <ele>464.45</ele>
        <time>2012-06-05T13:42:44Z</time>
      </trkpt>
      <trkpt lat="46.30141" lon="2.94073">
        <ele>464.45</ele>
        <time>2012-06-05T13:42:52Z</time>
      </trkpt>
      <trkpt lat="46.30149" lon="2.94065">
        <ele>464.45</ele>
        <time>2012-06-05T13:42:59Z</time>
      </trkpt>
      <trkpt lat="46.30155" lon="2.94054">
        <ele>464.93</ele>
        <time>2012-06-05T13:43:08Z</time>
      </trkpt>
      <trkpt lat="46.30164" lon="2.94043">
        <ele>464.93</ele>
        <time>2012-06-05T13:43:18Z</time>
      </trkpt>
      <trkpt lat="46.30171" lon="2.94032">
        <ele>465.9</ele>
        <time>2012-06-05T13:43:26Z</time>
      </trkpt>
      <trkpt lat="46.30177" lon="2.94018">
        <ele>466.38</ele>
        <time>2012-06-05T13:43:35Z</time>
      </trkpt>
      <trkpt lat="46.30182" lon="2.94005">
        <ele>465.9</ele>
        <time>2012-06-05T13:43:45Z</time>
      </trkpt>
      <trkpt lat="46.30188" lon="2.93989">
        <ele>466.86</ele>
        <time>2012-06-05T13:43:55Z</time>
      </trkpt>
      <trkpt lat="46.30193" lon="2.93973">
        <ele>466.38</ele>
        <time>2012-06-05T13:44:04Z</time>
      </trkpt>
      <trkpt lat="46.302" lon="2.93958">
        <ele>466.86</ele>
        <time>2012-06-05T13:44:12Z</time>
      </trkpt>
      <trkpt lat="46.30206" lon="2.93945">
        <ele>467.34</ele>
        <time>2012-06-05T13:44:19Z</time>
      </trkpt>
      <trkpt lat="46.3021" lon="2.93931">
        <ele>467.34</ele>
        <time>2012-06-05T13:44:27Z</time>
      </trkpt>
      <trkpt lat="46.30214" lon="2.93918">
        <ele>467.34</ele>
        <time>2012-06-05T13:44:36Z</time>
      </trkpt>
      <trkpt lat="46.30217" lon="2.93903">
        <ele>467.82</ele>
        <time>2012-06-05T13:44:45Z</time>
      </trkpt>
      <trkpt lat="46.3022" lon="2.93889">
        <ele>467.82</ele>
        <time>2012-06-05T13:44:53Z</time>
      </trkpt>
      <trkpt lat="46.30222" lon="2.93876">
        <ele>467.82</ele>
        <time>2012-06-05T13:45:01Z</time>
      </trkpt>
      <trkpt lat="46.30225" lon="2.93861">
        <ele>467.82</ele>
        <time>2012-06-05T13:45:10Z</time>
      </trkpt>
      <trkpt lat="46.30229" lon="2.93848">
        <ele>467.82</ele>
        <time>2012-06-05T13:45:17Z</time>
      </trkpt>
      <trkpt lat="46.30233" lon="2.93833">
        <ele>467.82</ele>
        <time>2012-06-05T13:45:26Z</time>
      </trkpt>
      <trkpt lat="46.30237" lon="2.93819">
        <ele>467.82</ele>
        <time>2012-06-05T13:45:35Z</time>
      </trkpt>
      <trkpt lat="46.30241" lon="2.93806">
        <ele>467.82</ele>
        <time>2012-06-05T13:45:42Z</time>
      </trkpt>
      <trkpt lat="46.30246" lon="2.93791">
        <ele>467.34</ele>
        <time>2012-06-05T13:45:51Z</time>
      </trkpt>
      <trkpt lat="46.30251" lon="2.9378">
        <ele>467.34</ele>
        <time>2012-06-05T13:45:57Z</time>
      </trkpt>
      <trkpt lat="46.30256" lon="2.93767">
        <ele>467.34</ele>
        <time>2012-06-05T13:46:06Z</time>
      </trkpt>
      <trkpt lat="46.30261" lon="2.93755">
        <ele>467.34</ele>
        <time>2012-06-05T13:46:14Z</time>
      </trkpt>
      <trkpt lat="46.30266" lon="2.93743">
        <ele>467.82</ele>
        <time>2012-06-05T13:46:21Z</time>
      </trkpt>
      <trkpt lat="46.30271" lon="2.93732">
        <ele>467.82</ele>
        <time>2012-06-05T13:46:29Z</time>
      </trkpt>
      <trkpt lat="46.30276" lon="2.93721">
        <ele>466.86</ele>
        <time>2012-06-05T13:46:39Z</time>
      </trkpt>
      <trkpt lat="46.3028" lon="2.9371">
        <ele>466.86</ele>
        <time>2012-06-05T13:47:20Z</time>
      </trkpt>
      <trkpt lat="46.30284" lon="2.93699">
        <ele>466.38</ele>
        <time>2012-06-05T13:47:41Z</time>
      </trkpt>
      <trkpt lat="46.30288" lon="2.93686">
        <ele>465.9</ele>
        <time>2012-06-05T13:47:52Z</time>
      </trkpt>
      <trkpt lat="46.30294" lon="2.93674">
        <ele>465.42</ele>
        <time>2012-06-05T13:48:01Z</time>
      </trkpt>
      <trkpt lat="46.30301" lon="2.93663">
        <ele>464.93</ele>
        <time>2012-06-05T13:48:09Z</time>
      </trkpt>
      <trkpt lat="46.30307" lon="2.93653">
        <ele>464.93</ele>
        <time>2012-06-05T13:48:17Z</time>
      </trkpt>
      <trkpt lat="46.30313" lon="2.93642">
        <ele>464.45</ele>
        <time>2012-06-05T13:48:25Z</time>
      </trkpt>
      <trkpt lat="46.30318" lon="2.93629">
        <ele>464.93</ele>
        <time>2012-06-05T13:48:33Z</time>
      </trkpt>
      <trkpt lat="46.30324" lon="2.93619">
        <ele>463.97</ele>
        <time>2012-06-05T13:48:41Z</time>
      </trkpt>
      <trkpt lat="46.30331" lon="2.93607">
        <ele>463.97</ele>
        <time>2012-06-05T13:48:50Z</time>
      </trkpt>
      <trkpt lat="46.30338" lon="2.93595">
        <ele>463.97</ele>
        <time>2012-06-05T13:48:58Z</time>
      </trkpt>
      <trkpt lat="46.30344" lon="2.93586">
        <ele>463.49</ele>
        <time>2012-06-05T13:49:05Z</time>
      </trkpt>
      <trkpt lat="46.30349" lon="2.93574">
        <ele>463.97</ele>
        <time>2012-06-05T13:49:12Z</time>
      </trkpt>
      <trkpt lat="46.30355" lon="2.93563">
        <ele>463.49</ele>
        <time>2012-06-05T13:49:20Z</time>
      </trkpt>
      <trkpt lat="46.30361" lon="2.93552">
        <ele>463.49</ele>
        <time>2012-06-05T13:49:28Z</time>
      </trkpt>
      <trkpt lat="46.30365" lon="2.9354">
        <ele>463.01</ele>
        <time>2012-06-05T13:49:36Z</time>
      </trkpt>
      <trkpt lat="46.30371" lon="2.9353">
        <ele>461.57</ele>
        <time>2012-06-05T13:49:45Z</time>
      </trkpt>
      <trkpt lat="46.30375" lon="2.93519">
        <ele>460.61</ele>
        <time>2012-06-05T13:49:53Z</time>
      </trkpt>
      <trkpt lat="46.3038" lon="2.93506">
        <ele>460.61</ele>
        <time>2012-06-05T13:50:02Z</time>
      </trkpt>
      <trkpt lat="46.30386" lon="2.93495">
        <ele>459.17</ele>
        <time>2012-06-05T13:50:10Z</time>
      </trkpt>
      <trkpt lat="46.30393" lon="2.93484">
        <ele>458.21</ele>
        <time>2012-06-05T13:50:20Z</time>
      </trkpt>
      <trkpt lat="46.30401" lon="2.93472">
        <ele>457.24</ele>
        <time>2012-06-05T13:50:30Z</time>
      </trkpt>
      <trkpt lat="46.30406" lon="2.93463">
        <ele>455.8</ele>
        <time>2012-06-05T13:50:49Z</time>
      </trkpt>
      <trkpt lat="46.30414" lon="2.93452">
        <ele>455.32</ele>
        <time>2012-06-05T13:51:04Z</time>
      </trkpt>
      <trkpt lat="46.30421" lon="2.93441">
        <ele>454.36</ele>
        <time>2012-06-05T13:51:13Z</time>
      </trkpt>
      <trkpt lat="46.3043" lon="2.93432">
        <ele>453.88</ele>
        <time>2012-06-05T13:51:23Z</time>
      </trkpt>
      <trkpt lat="46.30439" lon="2.93423">
        <ele>453.4</ele>
        <time>2012-06-05T13:51:30Z</time>
      </trkpt>
      <trkpt lat="46.30447" lon="2.93412">
        <ele>452.44</ele>
        <time>2012-06-05T13:51:39Z</time>
      </trkpt>
      <trkpt lat="46.30456" lon="2.93401">
        <ele>451.96</ele>
        <time>2012-06-05T13:51:48Z</time>
      </trkpt>
      <trkpt lat="46.30463" lon="2.93393">
        <ele>451</ele>
        <time>2012-06-05T13:52:00Z</time>
      </trkpt>
      <trkpt lat="46.30469" lon="2.93385">
        <ele>451</ele>
        <time>2012-06-05T13:53:10Z</time>
      </trkpt>
      <trkpt lat="46.30477" lon="2.93377">
        <ele>450.03</ele>
        <time>2012-06-05T13:53:33Z</time>
      </trkpt>
      <trkpt lat="46.30487" lon="2.93367">
        <ele>449.07</ele>
        <time>2012-06-05T13:53:46Z</time>
      </trkpt>
      <trkpt lat="46.30495" lon="2.93357">
        <ele>448.59</ele>
        <time>2012-06-05T13:53:56Z</time>
      </trkpt>
      <trkpt lat="46.30502" lon="2.93347">
        <ele>448.11</ele>
        <time>2012-06-05T13:54:05Z</time>
      </trkpt>
      <trkpt lat="46.3051" lon="2.93337">
        <ele>447.15</ele>
        <time>2012-06-05T13:54:15Z</time>
      </trkpt>
      <trkpt lat="46.30518" lon="2.93327">
        <ele>446.67</ele>
        <time>2012-06-05T13:54:24Z</time>
      </trkpt>
      <trkpt lat="46.30527" lon="2.93318">
        <ele>446.19</ele>
        <time>2012-06-05T13:54:32Z</time>
      </trkpt>
      <trkpt lat="46.30534" lon="2.93309">
        <ele>445.71</ele>
        <time>2012-06-05T13:54:39Z</time>
      </trkpt>
      <trkpt lat="46.30542" lon="2.93298">
        <ele>445.71</ele>
        <time>2012-06-05T13:54:49Z</time>
      </trkpt>
      <trkpt lat="46.30551" lon="2.93288">
        <ele>444.75</ele>
        <time>2012-06-05T13:54:58Z</time>
      </trkpt>
      <trkpt lat="46.3056" lon="2.93277">
        <ele>443.79</ele>
        <time>2012-06-05T13:55:08Z</time>
      </trkpt>
      <trkpt lat="46.30568" lon="2.93266">
        <ele>443.31</ele>
        <time>2012-06-05T13:55:18Z</time>
      </trkpt>
      <trkpt lat="46.30577" lon="2.93256">
        <ele>442.82</ele>
        <time>2012-06-05T13:55:26Z</time>
      </trkpt>
      <trkpt lat="46.30585" lon="2.93241">
        <ele>442.34</ele>
        <time>2012-06-05T13:55:46Z</time>
      </trkpt>
      <trkpt lat="46.30581" lon="2.93239">
        <ele>441.86</ele>
        <time>2012-06-05T13:56:07Z</time>
      </trkpt>
      <trkpt lat="46.30586" lon="2.93231">
        <ele>441.38</ele>
        <time>2012-06-05T13:56:47Z</time>
      </trkpt>
      <trkpt lat="46.30587" lon="2.93219">
        <ele>440.9</ele>
        <time>2012-06-05T13:57:18Z</time>
      </trkpt>
      <trkpt lat="46.3059" lon="2.93202">
        <ele>440.42</ele>
        <time>2012-06-05T13:57:28Z</time>
      </trkpt>
      <trkpt lat="46.30592" lon="2.93186">
        <ele>440.42</ele>
        <time>2012-06-05T13:57:35Z</time>
      </trkpt>
      <trkpt lat="46.30593" lon="2.93171">
        <ele>439.94</ele>
        <time>2012-06-05T13:57:41Z</time>
      </trkpt>
      <trkpt lat="46.30592" lon="2.93156">
        <ele>439.94</ele>
        <time>2012-06-05T13:57:50Z</time>
      </trkpt>
      <trkpt lat="46.30593" lon="2.93142">
        <ele>439.46</ele>
        <time>2012-06-05T13:57:57Z</time>
      </trkpt>
      <trkpt lat="46.30593" lon="2.93126">
        <ele>439.46</ele>
        <time>2012-06-05T13:58:05Z</time>
      </trkpt>
      <trkpt lat="46.3059" lon="2.93114">
        <ele>439.46</ele>
        <time>2012-06-05T13:58:12Z</time>
      </trkpt>
      <trkpt lat="46.30589" lon="2.93102">
        <ele>439.46</ele>
        <time>2012-06-05T13:58:19Z</time>
      </trkpt>
      <trkpt lat="46.30585" lon="2.93088">
        <ele>438.02</ele>
        <time>2012-06-05T13:58:27Z</time>
      </trkpt>
      <trkpt lat="46.3058" lon="2.93075">
        <ele>438.02</ele>
        <time>2012-06-05T13:58:34Z</time>
      </trkpt>
      <trkpt lat="46.30575" lon="2.93063">
        <ele>438.02</ele>
        <time>2012-06-05T13:58:41Z</time>
      </trkpt>
      <trkpt lat="46.3057" lon="2.93051">
        <ele>438.02</ele>
        <time>2012-06-05T13:58:47Z</time>
      </trkpt>
      <trkpt lat="46.30564" lon="2.93039">
        <ele>437.54</ele>
        <time>2012-06-05T13:58:54Z</time>
      </trkpt>
      <trkpt lat="46.30558" lon="2.93028">
        <ele>437.54</ele>
        <time>2012-06-05T13:59:01Z</time>
      </trkpt>
      <trkpt lat="46.3055" lon="2.93016">
        <ele>437.06</ele>
        <time>2012-06-05T13:59:09Z</time>
      </trkpt>
      <trkpt lat="46.3054" lon="2.93005">
        <ele>437.06</ele>
        <time>2012-06-05T13:59:18Z</time>
      </trkpt>
      <trkpt lat="46.30534" lon="2.92996">
        <ele>436.58</ele>
        <time>2012-06-05T13:59:37Z</time>
      </trkpt>
      <trkpt lat="46.30524" lon="2.9299">
        <ele>436.58</ele>
        <time>2012-06-05T13:59:45Z</time>
      </trkpt>
      <trkpt lat="46.30515" lon="2.92979">
        <ele>435.61</ele>
        <time>2012-06-05T13:59:54Z</time>
      </trkpt>
      <trkpt lat="46.30506" lon="2.9297">
        <ele>435.13</ele>
        <time>2012-06-05T14:00:03Z</time>
      </trkpt>
      <trkpt lat="46.30496" lon="2.92959">
        <ele>434.65</ele>
        <time>2012-06-05T14:00:14Z</time>
      </trkpt>
      <trkpt lat="46.30486" lon="2.92947">
        <ele>434.17</ele>
        <time>2012-06-05T14:00:24Z</time>
      </trkpt>
      <trkpt lat="46.30475" lon="2.92937">
        <ele>433.69</ele>
        <time>2012-06-05T14:00:34Z</time>
      </trkpt>
      <trkpt lat="46.30467" lon="2.92924">
        <ele>433.69</ele>
        <time>2012-06-05T14:00:44Z</time>
      </trkpt>
      <trkpt lat="46.30457" lon="2.92912">
        <ele>433.21</ele>
        <time>2012-06-05T14:00:54Z</time>
      </trkpt>
      <trkpt lat="46.30447" lon="2.929">
        <ele>432.73</ele>
        <time>2012-06-05T14:01:05Z</time>
      </trkpt>
      <trkpt lat="46.30439" lon="2.92887">
        <ele>432.73</ele>
        <time>2012-06-05T14:01:13Z</time>
      </trkpt>
      <trkpt lat="46.30433" lon="2.92874">
        <ele>432.25</ele>
        <time>2012-06-05T14:01:22Z</time>
      </trkpt>
      <trkpt lat="46.30428" lon="2.9286">
        <ele>431.77</ele>
        <time>2012-06-05T14:01:30Z</time>
      </trkpt>
      <trkpt lat="46.30422" lon="2.92847">
        <ele>431.77</ele>
        <time>2012-06-05T14:01:39Z</time>
      </trkpt>
      <trkpt lat="46.30418" lon="2.92829">
        <ele>431.29</ele>
        <time>2012-06-05T14:01:49Z</time>
      </trkpt>
      <trkpt lat="46.30415" lon="2.92813">
        <ele>430.81</ele>
        <time>2012-06-05T14:01:58Z</time>
      </trkpt>
      <trkpt lat="46.30413" lon="2.92795">
        <ele>430.33</ele>
        <time>2012-06-05T14:02:06Z</time>
      </trkpt>
      <trkpt lat="46.30412" lon="2.92777">
        <ele>429.85</ele>
        <time>2012-06-05T14:02:17Z</time>
      </trkpt>
      <trkpt lat="46.30411" lon="2.92759">
        <ele>429.37</ele>
        <time>2012-06-05T14:02:28Z</time>
      </trkpt>
      <trkpt lat="46.30413" lon="2.9274">
        <ele>429.37</ele>
        <time>2012-06-05T14:02:39Z</time>
      </trkpt>
      <trkpt lat="46.30415" lon="2.92721">
        <ele>428.89</ele>
        <time>2012-06-05T14:02:49Z</time>
      </trkpt>
      <trkpt lat="46.30419" lon="2.92698">
        <ele>428.89</ele>
        <time>2012-06-05T14:03:08Z</time>
      </trkpt>
      <trkpt lat="46.30427" lon="2.92668">
        <ele>428.4</ele>
        <time>2012-06-05T14:03:20Z</time>
      </trkpt>
      <trkpt lat="46.30435" lon="2.9265">
        <ele>427.44</ele>
        <time>2012-06-05T14:03:30Z</time>
      </trkpt>
      <trkpt lat="46.30445" lon="2.92626">
        <ele>427.44</ele>
        <time>2012-06-05T14:03:45Z</time>
      </trkpt>
      <trkpt lat="46.30455" lon="2.92608">
        <ele>426.48</ele>
        <time>2012-06-05T14:03:58Z</time>
      </trkpt>
      <trkpt lat="46.30462" lon="2.92589">
        <ele>426.48</ele>
        <time>2012-06-05T14:04:09Z</time>
      </trkpt>
      <trkpt lat="46.3047" lon="2.92575">
        <ele>426</ele>
        <time>2012-06-05T14:04:22Z</time>
      </trkpt>
      <trkpt lat="46.3048" lon="2.92562">
        <ele>425.52</ele>
        <time>2012-06-05T14:04:31Z</time>
      </trkpt>
      <trkpt lat="46.3049" lon="2.92552">
        <ele>425.52</ele>
        <time>2012-06-05T14:04:41Z</time>
      </trkpt>
      <trkpt lat="46.30499" lon="2.92541">
        <ele>425.04</ele>
        <time>2012-06-05T14:04:49Z</time>
      </trkpt>
      <trkpt lat="46.3051" lon="2.92533">
        <ele>425.04</ele>
        <time>2012-06-05T14:04:58Z</time>
      </trkpt>
      <trkpt lat="46.30521" lon="2.92526">
        <ele>424.08</ele>
        <time>2012-06-05T14:05:07Z</time>
      </trkpt>
      <trkpt lat="46.30535" lon="2.92519">
        <ele>424.08</ele>
        <time>2012-06-05T14:05:18Z</time>
      </trkpt>
      <trkpt lat="46.30549" lon="2.92516">
        <ele>423.6</ele>
        <time>2012-06-05T14:05:29Z</time>
      </trkpt>
      <trkpt lat="46.30561" lon="2.92515">
        <ele>423.12</ele>
        <time>2012-06-05T14:05:40Z</time>
      </trkpt>
      <trkpt lat="46.30574" lon="2.92513">
        <ele>423.12</ele>
        <time>2012-06-05T14:05:54Z</time>
      </trkpt>
      <trkpt lat="46.30587" lon="2.92516">
        <ele>422.64</ele>
        <time>2012-06-05T14:06:05Z</time>
      </trkpt>
      <trkpt lat="46.30599" lon="2.92519">
        <ele>423.6</ele>
        <time>2012-06-05T14:06:15Z</time>
      </trkpt>
      <trkpt lat="46.30611" lon="2.9252">
        <ele>423.12</ele>
        <time>2012-06-05T14:06:25Z</time>
      </trkpt>
      <trkpt lat="46.30623" lon="2.92523">
        <ele>422.64</ele>
        <time>2012-06-05T14:06:35Z</time>
      </trkpt>
      <trkpt lat="46.30636" lon="2.92524">
        <ele>422.64</ele>
        <time>2012-06-05T14:06:45Z</time>
      </trkpt>
      <trkpt lat="46.3065" lon="2.92524">
        <ele>422.16</ele>
        <time>2012-06-05T14:06:57Z</time>
      </trkpt>
      <trkpt lat="46.30663" lon="2.92521">
        <ele>422.16</ele>
        <time>2012-06-05T14:07:08Z</time>
      </trkpt>
      <trkpt lat="46.30677" lon="2.92515">
        <ele>421.19</ele>
        <time>2012-06-05T14:07:21Z</time>
      </trkpt>
      <trkpt lat="46.30688" lon="2.92509">
        <ele>421.19</ele>
        <time>2012-06-05T14:07:29Z</time>
      </trkpt>
      <trkpt lat="46.30699" lon="2.925">
        <ele>420.71</ele>
        <time>2012-06-05T14:07:39Z</time>
      </trkpt>
      <trkpt lat="46.30711" lon="2.92489">
        <ele>420.23</ele>
        <time>2012-06-05T14:07:50Z</time>
      </trkpt>
      <trkpt lat="46.3072" lon="2.9248">
        <ele>420.23</ele>
        <time>2012-06-05T14:07:59Z</time>
      </trkpt>
      <trkpt lat="46.30729" lon="2.92468">
        <ele>419.27</ele>
        <time>2012-06-05T14:08:08Z</time>
      </trkpt>
      <trkpt lat="46.30737" lon="2.92457">
        <ele>420.23</ele>
        <time>2012-06-05T14:08:15Z</time>
      </trkpt>
      <trkpt lat="46.30744" lon="2.92446">
        <ele>419.75</ele>
        <time>2012-06-05T14:08:23Z</time>
      </trkpt>
      <trkpt lat="46.3075" lon="2.92434">
        <ele>419.27</ele>
        <time>2012-06-05T14:08:29Z</time>
      </trkpt>
      <trkpt lat="46.30755" lon="2.92422">
        <ele>418.79</ele>
        <time>2012-06-05T14:08:37Z</time>
      </trkpt>
      <trkpt lat="46.3076" lon="2.92409">
        <ele>419.27</ele>
        <time>2012-06-05T14:08:45Z</time>
      </trkpt>
      <trkpt lat="46.30764" lon="2.92394">
        <ele>418.31</ele>
        <time>2012-06-05T14:08:54Z</time>
      </trkpt>
      <trkpt lat="46.30768" lon="2.92378">
        <ele>418.31</ele>
        <time>2012-06-05T14:09:03Z</time>
      </trkpt>
      <trkpt lat="46.3077" lon="2.92363">
        <ele>418.31</ele>
        <time>2012-06-05T14:09:12Z</time>
      </trkpt>
      <trkpt lat="46.30772" lon="2.92347">
        <ele>418.31</ele>
        <time>2012-06-05T14:09:22Z</time>
      </trkpt>
      <trkpt lat="46.30772" lon="2.92331">
        <ele>418.31</ele>
        <time>2012-06-05T14:09:31Z</time>
      </trkpt>
      <trkpt lat="46.30771" lon="2.92315">
        <ele>417.35</ele>
        <time>2012-06-05T14:09:39Z</time>
      </trkpt>
      <trkpt lat="46.30769" lon="2.92297">
        <ele>416.87</ele>
        <time>2012-06-05T14:09:48Z</time>
      </trkpt>
      <trkpt lat="46.3077" lon="2.92277">
        <ele>416.39</ele>
        <time>2012-06-05T14:09:58Z</time>
      </trkpt>
      <trkpt lat="46.30769" lon="2.92255">
        <ele>416.39</ele>
        <time>2012-06-05T14:10:10Z</time>
      </trkpt>
      <trkpt lat="46.3077" lon="2.92236">
        <ele>415.91</ele>
        <time>2012-06-05T14:10:21Z</time>
      </trkpt>
      <trkpt lat="46.30769" lon="2.92213">
        <ele>414.95</ele>
        <time>2012-06-05T14:10:34Z</time>
      </trkpt>
      <trkpt lat="46.30772" lon="2.92193">
        <ele>413.98</ele>
        <time>2012-06-05T14:10:45Z</time>
      </trkpt>
      <trkpt lat="46.30774" lon="2.9217">
        <ele>413.98</ele>
        <time>2012-06-05T14:10:56Z</time>
      </trkpt>
      <trkpt lat="46.30779" lon="2.92149">
        <ele>413.5</ele>
        <time>2012-06-05T14:11:07Z</time>
      </trkpt>
      <trkpt lat="46.30785" lon="2.9213">
        <ele>413.02</ele>
        <time>2012-06-05T14:11:18Z</time>
      </trkpt>
      <trkpt lat="46.30791" lon="2.92115">
        <ele>413.02</ele>
        <time>2012-06-05T14:11:27Z</time>
      </trkpt>
      <trkpt lat="46.30797" lon="2.92102">
        <ele>413.02</ele>
        <time>2012-06-05T14:11:45Z</time>
      </trkpt>
      <trkpt lat="46.30806" lon="2.9209">
        <ele>412.54</ele>
        <time>2012-06-05T14:11:54Z</time>
      </trkpt>
      <trkpt lat="46.30814" lon="2.92079">
        <ele>412.54</ele>
        <time>2012-06-05T14:12:01Z</time>
      </trkpt>
      <trkpt lat="46.30822" lon="2.9207">
        <ele>411.58</ele>
        <time>2012-06-05T14:12:11Z</time>
      </trkpt>
      <trkpt lat="46.30831" lon="2.92059">
        <ele>412.06</ele>
        <time>2012-06-05T14:12:21Z</time>
      </trkpt>
      <trkpt lat="46.3084" lon="2.92048">
        <ele>411.58</ele>
        <time>2012-06-05T14:12:30Z</time>
      </trkpt>
      <trkpt lat="46.3085" lon="2.92039">
        <ele>411.1</ele>
        <time>2012-06-05T14:12:38Z</time>
      </trkpt>
      <trkpt lat="46.30859" lon="2.92031">
        <ele>411.1</ele>
        <time>2012-06-05T14:12:47Z</time>
      </trkpt>
      <trkpt lat="46.30868" lon="2.92024">
        <ele>410.62</ele>
        <time>2012-06-05T14:12:54Z</time>
      </trkpt>
      <trkpt lat="46.30877" lon="2.92015">
        <ele>411.1</ele>
        <time>2012-06-05T14:13:03Z</time>
      </trkpt>
      <trkpt lat="46.30886" lon="2.92006">
        <ele>410.14</ele>
        <time>2012-06-05T14:13:09Z</time>
      </trkpt>
      <trkpt lat="46.30895" lon="2.91996">
        <ele>409.66</ele>
        <time>2012-06-05T14:13:20Z</time>
      </trkpt>
      <trkpt lat="46.30906" lon="2.91986">
        <ele>409.18</ele>
        <time>2012-06-05T14:13:28Z</time>
      </trkpt>
      <trkpt lat="46.30914" lon="2.91975">
        <ele>409.18</ele>
        <time>2012-06-05T14:13:36Z</time>
      </trkpt>
      <trkpt lat="46.30922" lon="2.91961">
        <ele>409.18</ele>
        <time>2012-06-05T14:13:45Z</time>
      </trkpt>
      <trkpt lat="46.3093" lon="2.9195">
        <ele>408.22</ele>
        <time>2012-06-05T14:13:52Z</time>
      </trkpt>
      <trkpt lat="46.30936" lon="2.91936">
        <ele>408.22</ele>
        <time>2012-06-05T14:14:01Z</time>
      </trkpt>
      <trkpt lat="46.30941" lon="2.91922">
        <ele>408.22</ele>
        <time>2012-06-05T14:14:09Z</time>
      </trkpt>
      <trkpt lat="46.30946" lon="2.91906">
        <ele>407.74</ele>
        <time>2012-06-05T14:14:18Z</time>
      </trkpt>
      <trkpt lat="46.3095" lon="2.91889">
        <ele>407.26</ele>
        <time>2012-06-05T14:14:28Z</time>
      </trkpt>
      <trkpt lat="46.30953" lon="2.91871">
        <ele>406.77</ele>
        <time>2012-06-05T14:14:37Z</time>
      </trkpt>
      <trkpt lat="46.30956" lon="2.91854">
        <ele>406.77</ele>
        <time>2012-06-05T14:14:47Z</time>
      </trkpt>
      <trkpt lat="46.30961" lon="2.91836">
        <ele>405.81</ele>
        <time>2012-06-05T14:14:58Z</time>
      </trkpt>
      <trkpt lat="46.30963" lon="2.9182">
        <ele>405.81</ele>
        <time>2012-06-05T14:15:07Z</time>
      </trkpt>
      <trkpt lat="46.30967" lon="2.91804">
        <ele>405.33</ele>
        <time>2012-06-05T14:15:17Z</time>
      </trkpt>
      <trkpt lat="46.30973" lon="2.91786">
        <ele>405.33</ele>
        <time>2012-06-05T14:15:28Z</time>
      </trkpt>
      <trkpt lat="46.3098" lon="2.91772">
        <ele>404.37</ele>
        <time>2012-06-05T14:15:38Z</time>
      </trkpt>
      <trkpt lat="46.30988" lon="2.91759">
        <ele>404.37</ele>
        <time>2012-06-05T14:15:46Z</time>
      </trkpt>
      <trkpt lat="46.30997" lon="2.91744">
        <ele>404.37</ele>
        <time>2012-06-05T14:15:57Z</time>
      </trkpt>
      <trkpt lat="46.31006" lon="2.91731">
        <ele>403.89</ele>
        <time>2012-06-05T14:16:08Z</time>
      </trkpt>
      <trkpt lat="46.31018" lon="2.91718">
        <ele>403.41</ele>
        <time>2012-06-05T14:16:20Z</time>
      </trkpt>
      <trkpt lat="46.31027" lon="2.9171">
        <ele>403.41</ele>
        <time>2012-06-05T14:16:29Z</time>
      </trkpt>
      <trkpt lat="46.31037" lon="2.91703">
        <ele>403.41</ele>
        <time>2012-06-05T14:16:35Z</time>
      </trkpt>
      <trkpt lat="46.31046" lon="2.91699">
        <ele>402.93</ele>
        <time>2012-06-05T14:16:43Z</time>
      </trkpt>
      <trkpt lat="46.31058" lon="2.91693">
        <ele>402.93</ele>
        <time>2012-06-05T14:16:54Z</time>
      </trkpt>
      <trkpt lat="46.31069" lon="2.9169">
        <ele>402.45</ele>
        <time>2012-06-05T14:17:02Z</time>
      </trkpt>
      <trkpt lat="46.3108" lon="2.91689">
        <ele>402.93</ele>
        <time>2012-06-05T14:17:11Z</time>
      </trkpt>
      <trkpt lat="46.31094" lon="2.91688">
        <ele>402.45</ele>
        <time>2012-06-05T14:17:20Z</time>
      </trkpt>
      <trkpt lat="46.31106" lon="2.91688">
        <ele>402.45</ele>
        <time>2012-06-05T14:17:30Z</time>
      </trkpt>
      <trkpt lat="46.31121" lon="2.91692">
        <ele>402.45</ele>
        <time>2012-06-05T14:17:41Z</time>
      </trkpt>
      <trkpt lat="46.31128" lon="2.91698">
        <ele>402.45</ele>
        <time>2012-06-05T14:19:22Z</time>
      </trkpt>
      <trkpt lat="46.31129" lon="2.91703">
        <ele>402.93</ele>
        <time>2012-06-05T14:20:40Z</time>
      </trkpt>
      <trkpt lat="46.31135" lon="2.91716">
        <ele>401.97</ele>
        <time>2012-06-05T14:20:50Z</time>
      </trkpt>
      <trkpt lat="46.31139" lon="2.91732">
        <ele>400.53</ele>
        <time>2012-06-05T14:20:59Z</time>
      </trkpt>
      <trkpt lat="46.31142" lon="2.9175">
        <ele>399.08</ele>
        <time>2012-06-05T14:21:09Z</time>
      </trkpt>
      <trkpt lat="46.31146" lon="2.91762">
        <ele>398.12</ele>
        <time>2012-06-05T14:21:19Z</time>
      </trkpt>
      <trkpt lat="46.31153" lon="2.91773">
        <ele>398.12</ele>
        <time>2012-06-05T14:21:29Z</time>
      </trkpt>
      <trkpt lat="46.31162" lon="2.9179">
        <ele>397.16</ele>
        <time>2012-06-05T14:21:44Z</time>
      </trkpt>
      <trkpt lat="46.31168" lon="2.91806">
        <ele>396.68</ele>
        <time>2012-06-05T14:21:54Z</time>
      </trkpt>
      <trkpt lat="46.31175" lon="2.91832">
        <ele>396.68</ele>
        <time>2012-06-05T14:22:11Z</time>
      </trkpt>
      <trkpt lat="46.31181" lon="2.91854">
        <ele>396.68</ele>
        <time>2012-06-05T14:22:23Z</time>
      </trkpt>
      <trkpt lat="46.3118" lon="2.91873">
        <ele>396.68</ele>
        <time>2012-06-05T14:22:34Z</time>
      </trkpt>
      <trkpt lat="46.31178" lon="2.91893">
        <ele>397.16</ele>
        <time>2012-06-05T14:22:44Z</time>
      </trkpt>
      <trkpt lat="46.31175" lon="2.91913">
        <ele>398.12</ele>
        <time>2012-06-05T14:22:56Z</time>
      </trkpt>
      <trkpt lat="46.31174" lon="2.91932">
        <ele>397.64</ele>
        <time>2012-06-05T14:23:07Z</time>
      </trkpt>
      <trkpt lat="46.31173" lon="2.9195">
        <ele>397.16</ele>
        <time>2012-06-05T14:23:17Z</time>
      </trkpt>
      <trkpt lat="46.31171" lon="2.91969">
        <ele>397.16</ele>
        <time>2012-06-05T14:23:26Z</time>
      </trkpt>
      <trkpt lat="46.31167" lon="2.91983">
        <ele>397.16</ele>
        <time>2012-06-05T14:23:35Z</time>
      </trkpt>
      <trkpt lat="46.31163" lon="2.92">
        <ele>397.16</ele>
        <time>2012-06-05T14:23:45Z</time>
      </trkpt>
      <trkpt lat="46.31159" lon="2.92023">
        <ele>397.64</ele>
        <time>2012-06-05T14:23:56Z</time>
      </trkpt>
      <trkpt lat="46.31159" lon="2.92042">
        <ele>398.6</ele>
        <time>2012-06-05T14:24:06Z</time>
      </trkpt>
      <trkpt lat="46.31158" lon="2.9206">
        <ele>397.16</ele>
        <time>2012-06-05T14:24:16Z</time>
      </trkpt>
      <trkpt lat="46.31156" lon="2.92079">
        <ele>396.68</ele>
        <time>2012-06-05T14:24:27Z</time>
      </trkpt>
      <trkpt lat="46.31152" lon="2.92094">
        <ele>396.68</ele>
        <time>2012-06-05T14:24:37Z</time>
      </trkpt>
      <trkpt lat="46.31149" lon="2.92114">
        <ele>395.72</ele>
        <time>2012-06-05T14:24:48Z</time>
      </trkpt>
      <trkpt lat="46.31146" lon="2.92134">
        <ele>395.24</ele>
        <time>2012-06-05T14:24:56Z</time>
      </trkpt>
      <trkpt lat="46.31141" lon="2.92151">
        <ele>395.24</ele>
        <time>2012-06-05T14:25:06Z</time>
      </trkpt>
      <trkpt lat="46.31134" lon="2.92161">
        <ele>394.76</ele>
        <time>2012-06-05T14:25:15Z</time>
      </trkpt>
      <trkpt lat="46.31131" lon="2.92163">
        <ele>395.24</ele>
        <time>2012-06-05T14:26:49Z</time>
      </trkpt>
      <trkpt lat="46.31122" lon="2.92174">
        <ele>395.24</ele>
        <time>2012-06-05T14:27:00Z</time>
      </trkpt>
      <trkpt lat="46.31113" lon="2.92187">
        <ele>395.72</ele>
        <time>2012-06-05T14:27:10Z</time>
      </trkpt>
      <trkpt lat="46.31105" lon="2.92197">
        <ele>396.2</ele>
        <time>2012-06-05T14:27:19Z</time>
      </trkpt>
      <trkpt lat="46.31094" lon="2.92206">
        <ele>396.2</ele>
        <time>2012-06-05T14:27:28Z</time>
      </trkpt>
      <trkpt lat="46.31084" lon="2.92218">
        <ele>397.64</ele>
        <time>2012-06-05T14:27:39Z</time>
      </trkpt>
      <trkpt lat="46.31074" lon="2.92226">
        <ele>398.12</ele>
        <time>2012-06-05T14:27:52Z</time>
      </trkpt>
      <trkpt lat="46.31063" lon="2.92234">
        <ele>399.08</ele>
        <time>2012-06-05T14:28:02Z</time>
      </trkpt>
      <trkpt lat="46.31051" lon="2.92243">
        <ele>401.49</ele>
        <time>2012-06-05T14:28:17Z</time>
      </trkpt>
      <trkpt lat="46.31038" lon="2.92257">
        <ele>401.97</ele>
        <time>2012-06-05T14:28:32Z</time>
      </trkpt>
      <trkpt lat="46.3103" lon="2.92271">
        <ele>402.45</ele>
        <time>2012-06-05T14:28:43Z</time>
      </trkpt>
      <trkpt lat="46.31023" lon="2.92283">
        <ele>403.41</ele>
        <time>2012-06-05T14:28:55Z</time>
      </trkpt>
      <trkpt lat="46.31015" lon="2.92299">
        <ele>404.85</ele>
        <time>2012-06-05T14:29:06Z</time>
      </trkpt>
      <trkpt lat="46.31008" lon="2.92313">
        <ele>402.93</ele>
        <time>2012-06-05T14:29:17Z</time>
      </trkpt>
      <trkpt lat="46.30999" lon="2.92324">
        <ele>404.37</ele>
        <time>2012-06-05T14:29:29Z</time>
      </trkpt>
      <trkpt lat="46.30985" lon="2.92339">
        <ele>405.81</ele>
        <time>2012-06-05T14:29:46Z</time>
      </trkpt>
      <trkpt lat="46.30971" lon="2.92342">
        <ele>406.29</ele>
        <time>2012-06-05T14:29:59Z</time>
      </trkpt>
      <trkpt lat="46.30958" lon="2.92342">
        <ele>406.77</ele>
        <time>2012-06-05T14:30:12Z</time>
      </trkpt>
      <trkpt lat="46.30938" lon="2.92342">
        <ele>408.7</ele>
        <time>2012-06-05T14:30:30Z</time>
      </trkpt>
      <trkpt lat="46.30925" lon="2.92347">
        <ele>408.7</ele>
        <time>2012-06-05T14:30:43Z</time>
      </trkpt>
      <trkpt lat="46.30915" lon="2.92354">
        <ele>410.14</ele>
        <time>2012-06-05T14:30:54Z</time>
      </trkpt>
      <trkpt lat="46.30905" lon="2.9236">
        <ele>410.14</ele>
        <time>2012-06-05T14:31:05Z</time>
      </trkpt>
      <trkpt lat="46.30894" lon="2.92369">
        <ele>412.54</ele>
        <time>2012-06-05T14:31:16Z</time>
      </trkpt>
      <trkpt lat="46.30883" lon="2.92383">
        <ele>411.1</ele>
        <time>2012-06-05T14:31:29Z</time>
      </trkpt>
      <trkpt lat="46.30875" lon="2.92403">
        <ele>409.18</ele>
        <time>2012-06-05T14:31:43Z</time>
      </trkpt>
      <trkpt lat="46.30871" lon="2.92423">
        <ele>407.74</ele>
        <time>2012-06-05T14:31:57Z</time>
      </trkpt>
      <trkpt lat="46.30867" lon="2.92436">
        <ele>406.77</ele>
        <time>2012-06-05T14:32:27Z</time>
      </trkpt>
      <trkpt lat="46.3086" lon="2.92451">
        <ele>406.77</ele>
        <time>2012-06-05T14:33:29Z</time>
      </trkpt>
      <trkpt lat="46.30858" lon="2.92463">
        <ele>405.81</ele>
        <time>2012-06-05T14:33:41Z</time>
      </trkpt>
      <trkpt lat="46.30854" lon="2.92479">
        <ele>405.81</ele>
        <time>2012-06-05T14:33:50Z</time>
      </trkpt>
      <trkpt lat="46.30848" lon="2.92498">
        <ele>405.81</ele>
        <time>2012-06-05T14:34:03Z</time>
      </trkpt>
      <trkpt lat="46.30839" lon="2.92515">
        <ele>405.33</ele>
        <time>2012-06-05T14:34:13Z</time>
      </trkpt>
      <trkpt lat="46.30828" lon="2.92524">
        <ele>405.81</ele>
        <time>2012-06-05T14:34:24Z</time>
      </trkpt>
      <trkpt lat="46.30814" lon="2.92531">
        <ele>405.81</ele>
        <time>2012-06-05T14:34:35Z</time>
      </trkpt>
      <trkpt lat="46.30801" lon="2.92542">
        <ele>406.77</ele>
        <time>2012-06-05T14:34:48Z</time>
      </trkpt>
      <trkpt lat="46.30791" lon="2.92558">
        <ele>406.29</ele>
        <time>2012-06-05T14:34:58Z</time>
      </trkpt>
      <trkpt lat="46.30781" lon="2.92567">
        <ele>406.29</ele>
        <time>2012-06-05T14:35:05Z</time>
      </trkpt>
      <trkpt lat="46.3077" lon="2.92578">
        <ele>406.29</ele>
        <time>2012-06-05T14:35:13Z</time>
      </trkpt>
      <trkpt lat="46.30759" lon="2.92589">
        <ele>406.29</ele>
        <time>2012-06-05T14:35:24Z</time>
      </trkpt>
      <trkpt lat="46.30751" lon="2.92602">
        <ele>406.29</ele>
        <time>2012-06-05T14:35:35Z</time>
      </trkpt>
      <trkpt lat="46.30744" lon="2.92618">
        <ele>406.77</ele>
        <time>2012-06-05T14:35:49Z</time>
      </trkpt>
      <trkpt lat="46.30733" lon="2.9264">
        <ele>407.26</ele>
        <time>2012-06-05T14:36:03Z</time>
      </trkpt>
      <trkpt lat="46.30728" lon="2.92656">
        <ele>408.22</ele>
        <time>2012-06-05T14:36:13Z</time>
      </trkpt>
      <trkpt lat="46.30729" lon="2.92675">
        <ele>409.18</ele>
        <time>2012-06-05T14:36:24Z</time>
      </trkpt>
      <trkpt lat="46.30729" lon="2.92692">
        <ele>410.62</ele>
        <time>2012-06-05T14:36:35Z</time>
      </trkpt>
      <trkpt lat="46.30728" lon="2.92712">
        <ele>411.58</ele>
        <time>2012-06-05T14:36:45Z</time>
      </trkpt>
      <trkpt lat="46.30729" lon="2.92729">
        <ele>412.06</ele>
        <time>2012-06-05T14:36:57Z</time>
      </trkpt>
      <trkpt lat="46.30731" lon="2.92749">
        <ele>414.47</ele>
        <time>2012-06-05T14:37:11Z</time>
      </trkpt>
      <trkpt lat="46.30731" lon="2.92767">
        <ele>414.95</ele>
        <time>2012-06-05T14:37:22Z</time>
      </trkpt>
      <trkpt lat="46.30727" lon="2.92783">
        <ele>416.87</ele>
        <time>2012-06-05T14:37:33Z</time>
      </trkpt>
      <trkpt lat="46.30727" lon="2.92799">
        <ele>417.83</ele>
        <time>2012-06-05T14:37:43Z</time>
      </trkpt>
      <trkpt lat="46.30722" lon="2.92816">
        <ele>419.75</ele>
        <time>2012-06-05T14:37:54Z</time>
      </trkpt>
      <trkpt lat="46.3072" lon="2.92833">
        <ele>420.71</ele>
        <time>2012-06-05T14:38:07Z</time>
      </trkpt>
      <trkpt lat="46.30714" lon="2.92854">
        <ele>421.68</ele>
        <time>2012-06-05T14:38:20Z</time>
      </trkpt>
      <trkpt lat="46.30709" lon="2.9287">
        <ele>423.6</ele>
        <time>2012-06-05T14:38:32Z</time>
      </trkpt>
      <trkpt lat="46.30704" lon="2.92886">
        <ele>425.04</ele>
        <time>2012-06-05T14:38:43Z</time>
      </trkpt>
      <trkpt lat="46.30701" lon="2.92902">
        <ele>425.52</ele>
        <time>2012-06-05T14:38:52Z</time>
      </trkpt>
      <trkpt lat="46.30697" lon="2.9292">
        <ele>425.52</ele>
        <time>2012-06-05T14:39:04Z</time>
      </trkpt>
      <trkpt lat="46.30694" lon="2.92938">
        <ele>426.96</ele>
        <time>2012-06-05T14:39:15Z</time>
      </trkpt>
      <trkpt lat="46.30694" lon="2.92954">
        <ele>427.92</ele>
        <time>2012-06-05T14:39:26Z</time>
      </trkpt>
      <trkpt lat="46.30695" lon="2.92971">
        <ele>427.44</ele>
        <time>2012-06-05T14:39:37Z</time>
      </trkpt>
      <trkpt lat="46.30695" lon="2.92984">
        <ele>427.92</ele>
        <time>2012-06-05T14:41:06Z</time>
      </trkpt>
      <trkpt lat="46.30703" lon="2.92992">
        <ele>426</ele>
        <time>2012-06-05T14:42:08Z</time>
      </trkpt>
      <trkpt lat="46.30711" lon="2.93006">
        <ele>425.52</ele>
        <time>2012-06-05T14:42:18Z</time>
      </trkpt>
      <trkpt lat="46.30722" lon="2.9302">
        <ele>424.56</ele>
        <time>2012-06-05T14:42:32Z</time>
      </trkpt>
      <trkpt lat="46.30735" lon="2.93035">
        <ele>424.08</ele>
        <time>2012-06-05T14:42:52Z</time>
      </trkpt>
      <trkpt lat="46.30747" lon="2.93044">
        <ele>423.6</ele>
        <time>2012-06-05T14:43:53Z</time>
      </trkpt>
      <trkpt lat="46.30759" lon="2.93055">
        <ele>423.6</ele>
        <time>2012-06-05T14:44:08Z</time>
      </trkpt>
      <trkpt lat="46.30766" lon="2.93066">
        <ele>425.52</ele>
        <time>2012-06-05T14:44:28Z</time>
      </trkpt>
      <trkpt lat="46.30773" lon="2.93082">
        <ele>426.48</ele>
        <time>2012-06-05T14:44:39Z</time>
      </trkpt>
      <trkpt lat="46.30779" lon="2.93102">
        <ele>427.92</ele>
        <time>2012-06-05T14:45:16Z</time>
      </trkpt>
      <trkpt lat="46.30795" lon="2.93135">
        <ele>431.29</ele>
        <time>2012-06-05T14:45:32Z</time>
      </trkpt>
      <trkpt lat="46.30808" lon="2.93157">
        <ele>433.21</ele>
        <time>2012-06-05T14:45:44Z</time>
      </trkpt>
      <trkpt lat="46.30816" lon="2.93172">
        <ele>434.65</ele>
        <time>2012-06-05T14:45:53Z</time>
      </trkpt>
      <trkpt lat="46.30818" lon="2.9319">
        <ele>435.13</ele>
        <time>2012-06-05T14:46:01Z</time>
      </trkpt>
      <trkpt lat="46.30819" lon="2.93207">
        <ele>437.06</ele>
        <time>2012-06-05T14:46:11Z</time>
      </trkpt>
      <trkpt lat="46.3082" lon="2.93224">
        <ele>437.06</ele>
        <time>2012-06-05T14:46:20Z</time>
      </trkpt>
      <trkpt lat="46.30822" lon="2.9324">
        <ele>438.02</ele>
        <time>2012-06-05T14:46:29Z</time>
      </trkpt>
      <trkpt lat="46.30824" lon="2.93255">
        <ele>438.02</ele>
        <time>2012-06-05T14:46:36Z</time>
      </trkpt>
      <trkpt lat="46.30827" lon="2.9327">
        <ele>438.5</ele>
        <time>2012-06-05T14:46:43Z</time>
      </trkpt>
      <trkpt lat="46.30828" lon="2.93285">
        <ele>439.46</ele>
        <time>2012-06-05T14:46:52Z</time>
      </trkpt>
      <trkpt lat="46.30831" lon="2.933">
        <ele>440.42</ele>
        <time>2012-06-05T14:47:00Z</time>
      </trkpt>
      <trkpt lat="46.30832" lon="2.93319">
        <ele>441.38</ele>
        <time>2012-06-05T14:47:10Z</time>
      </trkpt>
      <trkpt lat="46.30833" lon="2.93333">
        <ele>441.86</ele>
        <time>2012-06-05T14:47:17Z</time>
      </trkpt>
      <trkpt lat="46.30836" lon="2.93346">
        <ele>442.82</ele>
        <time>2012-06-05T14:47:26Z</time>
      </trkpt>
      <trkpt lat="46.30837" lon="2.93368">
        <ele>443.31</ele>
        <time>2012-06-05T14:47:35Z</time>
      </trkpt>
      <trkpt lat="46.30839" lon="2.93383">
        <ele>443.79</ele>
        <time>2012-06-05T14:47:41Z</time>
      </trkpt>
      <trkpt lat="46.30841" lon="2.934">
        <ele>443.79</ele>
        <time>2012-06-05T14:47:51Z</time>
      </trkpt>
      <trkpt lat="46.30844" lon="2.93415">
        <ele>444.27</ele>
        <time>2012-06-05T14:48:00Z</time>
      </trkpt>
      <trkpt lat="46.30845" lon="2.93434">
        <ele>445.23</ele>
        <time>2012-06-05T14:48:09Z</time>
      </trkpt>
      <trkpt lat="46.30846" lon="2.9345">
        <ele>445.71</ele>
        <time>2012-06-05T14:48:16Z</time>
      </trkpt>
      <trkpt lat="46.30849" lon="2.93463">
        <ele>445.71</ele>
        <time>2012-06-05T14:48:23Z</time>
      </trkpt>
      <trkpt lat="46.3085" lon="2.9348">
        <ele>446.67</ele>
        <time>2012-06-05T14:48:32Z</time>
      </trkpt>
      <trkpt lat="46.30853" lon="2.93495">
        <ele>447.15</ele>
        <time>2012-06-05T14:48:38Z</time>
      </trkpt>
      <trkpt lat="46.30855" lon="2.93506">
        <ele>447.63</ele>
        <time>2012-06-05T14:48:45Z</time>
      </trkpt>
      <trkpt lat="46.30856" lon="2.93521">
        <ele>448.59</ele>
        <time>2012-06-05T14:48:53Z</time>
      </trkpt>
      <trkpt lat="46.30854" lon="2.93538">
        <ele>450.52</ele>
        <time>2012-06-05T14:49:02Z</time>
      </trkpt>
      <trkpt lat="46.3085" lon="2.93557">
        <ele>450.03</ele>
        <time>2012-06-05T14:49:12Z</time>
      </trkpt>
      <trkpt lat="46.30849" lon="2.93573">
        <ele>450.52</ele>
        <time>2012-06-05T14:49:21Z</time>
      </trkpt>
      <trkpt lat="46.30849" lon="2.93588">
        <ele>451.48</ele>
        <time>2012-06-05T14:49:28Z</time>
      </trkpt>
      <trkpt lat="46.30856" lon="2.93598">
        <ele>451.48</ele>
        <time>2012-06-05T14:49:36Z</time>
      </trkpt>
      <trkpt lat="46.30864" lon="2.93609">
        <ele>451.48</ele>
        <time>2012-06-05T14:49:56Z</time>
      </trkpt>
      <trkpt lat="46.30871" lon="2.93621">
        <ele>451.96</ele>
        <time>2012-06-05T14:50:03Z</time>
      </trkpt>
      <trkpt lat="46.30878" lon="2.93631">
        <ele>451.96</ele>
        <time>2012-06-05T14:50:12Z</time>
      </trkpt>
      <trkpt lat="46.30886" lon="2.93644">
        <ele>452.44</ele>
        <time>2012-06-05T14:50:20Z</time>
      </trkpt>
      <trkpt lat="46.30891" lon="2.93657">
        <ele>452.92</ele>
        <time>2012-06-05T14:50:26Z</time>
      </trkpt>
      <trkpt lat="46.30895" lon="2.9367">
        <ele>452.92</ele>
        <time>2012-06-05T14:50:32Z</time>
      </trkpt>
      <trkpt lat="46.309" lon="2.93683">
        <ele>452.92</ele>
        <time>2012-06-05T14:50:41Z</time>
      </trkpt>
      <trkpt lat="46.30905" lon="2.93696">
        <ele>453.4</ele>
        <time>2012-06-05T14:50:49Z</time>
      </trkpt>
      <trkpt lat="46.3091" lon="2.93706">
        <ele>457.72</ele>
        <time>2012-06-05T14:51:05Z</time>
      </trkpt>
      <trkpt lat="46.30912" lon="2.93712">
        <ele>453.4</ele>
        <time>2012-06-05T14:51:36Z</time>
      </trkpt>
      <trkpt lat="46.30916" lon="2.93725">
        <ele>453.88</ele>
        <time>2012-06-05T14:51:42Z</time>
      </trkpt>
      <trkpt lat="46.3092" lon="2.93737">
        <ele>454.36</ele>
        <time>2012-06-05T14:51:49Z</time>
      </trkpt>
      <trkpt lat="46.30924" lon="2.93749">
        <ele>454.36</ele>
        <time>2012-06-05T14:51:57Z</time>
      </trkpt>
      <trkpt lat="46.3093" lon="2.93761">
        <ele>454.84</ele>
        <time>2012-06-05T14:52:06Z</time>
      </trkpt>
      <trkpt lat="46.30935" lon="2.93775">
        <ele>455.32</ele>
        <time>2012-06-05T14:52:16Z</time>
      </trkpt>
      <trkpt lat="46.30943" lon="2.93789">
        <ele>455.8</ele>
        <time>2012-06-05T14:52:28Z</time>
      </trkpt>
      <trkpt lat="46.30953" lon="2.93802">
        <ele>455.32</ele>
        <time>2012-06-05T14:52:39Z</time>
      </trkpt>
      <trkpt lat="46.30963" lon="2.93818">
        <ele>456.28</ele>
        <time>2012-06-05T14:52:54Z</time>
      </trkpt>
      <trkpt lat="46.30971" lon="2.93827">
        <ele>456.76</ele>
        <time>2012-06-05T14:53:01Z</time>
      </trkpt>
      <trkpt lat="46.30981" lon="2.93835">
        <ele>456.76</ele>
        <time>2012-06-05T14:53:11Z</time>
      </trkpt>
      <trkpt lat="46.3099" lon="2.93842">
        <ele>457.24</ele>
        <time>2012-06-05T14:53:20Z</time>
      </trkpt>
      <trkpt lat="46.30999" lon="2.93847">
        <ele>457.24</ele>
        <time>2012-06-05T14:53:29Z</time>
      </trkpt>
      <trkpt lat="46.31009" lon="2.93851">
        <ele>458.21</ele>
        <time>2012-06-05T14:54:55Z</time>
      </trkpt>
      <trkpt lat="46.31021" lon="2.93857">
        <ele>457.72</ele>
        <time>2012-06-05T14:55:18Z</time>
      </trkpt>
      <trkpt lat="46.31031" lon="2.93863">
        <ele>458.21</ele>
        <time>2012-06-05T14:55:45Z</time>
      </trkpt>
      <trkpt lat="46.31043" lon="2.93869">
        <ele>458.69</ele>
        <time>2012-06-05T14:55:55Z</time>
      </trkpt>
      <trkpt lat="46.31049" lon="2.9387">
        <ele>458.69</ele>
        <time>2012-06-05T14:56:21Z</time>
      </trkpt>
      <trkpt lat="46.31058" lon="2.93874">
        <ele>459.65</ele>
        <time>2012-06-05T14:56:44Z</time>
      </trkpt>
      <trkpt lat="46.31068" lon="2.93882">
        <ele>459.17</ele>
        <time>2012-06-05T14:56:53Z</time>
      </trkpt>
      <trkpt lat="46.31077" lon="2.9389">
        <ele>459.65</ele>
        <time>2012-06-05T14:57:02Z</time>
      </trkpt>
      <trkpt lat="46.31088" lon="2.93902">
        <ele>460.13</ele>
        <time>2012-06-05T14:57:13Z</time>
      </trkpt>
      <trkpt lat="46.31096" lon="2.93913">
        <ele>460.61</ele>
        <time>2012-06-05T14:57:22Z</time>
      </trkpt>
      <trkpt lat="46.31104" lon="2.93923">
        <ele>460.13</ele>
        <time>2012-06-05T14:57:29Z</time>
      </trkpt>
      <trkpt lat="46.31111" lon="2.93933">
        <ele>460.61</ele>
        <time>2012-06-05T14:57:41Z</time>
      </trkpt>
      <trkpt lat="46.31119" lon="2.93948">
        <ele>461.09</ele>
        <time>2012-06-05T14:57:50Z</time>
      </trkpt>
      <trkpt lat="46.31127" lon="2.93962">
        <ele>461.57</ele>
        <time>2012-06-05T14:57:59Z</time>
      </trkpt>
      <trkpt lat="46.31131" lon="2.93975">
        <ele>461.57</ele>
        <time>2012-06-05T14:58:06Z</time>
      </trkpt>
      <trkpt lat="46.31134" lon="2.93993">
        <ele>461.57</ele>
        <time>2012-06-05T14:58:15Z</time>
      </trkpt>
      <trkpt lat="46.31136" lon="2.94009">
        <ele>462.05</ele>
        <time>2012-06-05T14:58:22Z</time>
      </trkpt>
      <trkpt lat="46.31138" lon="2.94023">
        <ele>462.05</ele>
        <time>2012-06-05T14:58:30Z</time>
      </trkpt>
      <trkpt lat="46.3114" lon="2.94039">
        <ele>462.05</ele>
        <time>2012-06-05T14:58:38Z</time>
      </trkpt>
      <trkpt lat="46.3114" lon="2.94056">
        <ele>461.57</ele>
        <time>2012-06-05T14:58:48Z</time>
      </trkpt>
      <trkpt lat="46.31141" lon="2.94073">
        <ele>462.05</ele>
        <time>2012-06-05T14:58:56Z</time>
      </trkpt>
      <trkpt lat="46.3114" lon="2.94087">
        <ele>462.05</ele>
        <time>2012-06-05T14:59:02Z</time>
      </trkpt>
      <trkpt lat="46.31138" lon="2.94103">
        <ele>461.57</ele>
        <time>2012-06-05T14:59:11Z</time>
      </trkpt>
      <trkpt lat="46.31136" lon="2.94117">
        <ele>462.05</ele>
        <time>2012-06-05T14:59:29Z</time>
      </trkpt>
      <trkpt lat="46.31134" lon="2.94134">
        <ele>461.57</ele>
        <time>2012-06-05T14:59:40Z</time>
      </trkpt>
      <trkpt lat="46.3113" lon="2.94149">
        <ele>462.05</ele>
        <time>2012-06-05T14:59:58Z</time>
      </trkpt>
      <trkpt lat="46.31131" lon="2.94168">
        <ele>462.05</ele>
        <time>2012-06-05T15:00:07Z</time>
      </trkpt>
      <trkpt lat="46.31128" lon="2.94183">
        <ele>461.57</ele>
        <time>2012-06-05T15:00:13Z</time>
      </trkpt>
      <trkpt lat="46.31126" lon="2.94198">
        <ele>461.57</ele>
        <time>2012-06-05T15:00:20Z</time>
      </trkpt>
      <trkpt lat="46.31124" lon="2.9421">
        <ele>461.09</ele>
        <time>2012-06-05T15:00:26Z</time>
      </trkpt>
      <trkpt lat="46.31121" lon="2.94223">
        <ele>461.09</ele>
        <time>2012-06-05T15:00:36Z</time>
      </trkpt>
      <trkpt lat="46.31119" lon="2.9424">
        <ele>461.57</ele>
        <time>2012-06-05T15:00:45Z</time>
      </trkpt>
      <trkpt lat="46.31118" lon="2.94264">
        <ele>461.57</ele>
        <time>2012-06-05T15:00:55Z</time>
      </trkpt>
      <trkpt lat="46.31115" lon="2.94287">
        <ele>462.05</ele>
        <time>2012-06-05T15:01:07Z</time>
      </trkpt>
      <trkpt lat="46.31113" lon="2.94307">
        <ele>462.05</ele>
        <time>2012-06-05T15:01:16Z</time>
      </trkpt>
      <trkpt lat="46.3111" lon="2.94326">
        <ele>462.53</ele>
        <time>2012-06-05T15:01:25Z</time>
      </trkpt>
      <trkpt lat="46.31106" lon="2.94349">
        <ele>462.53</ele>
        <time>2012-06-05T15:01:35Z</time>
      </trkpt>
      <trkpt lat="46.31105" lon="2.94367">
        <ele>462.53</ele>
        <time>2012-06-05T15:01:43Z</time>
      </trkpt>
      <trkpt lat="46.31109" lon="2.94387">
        <ele>463.49</ele>
        <time>2012-06-05T15:01:51Z</time>
      </trkpt>
      <trkpt lat="46.31111" lon="2.94403">
        <ele>463.97</ele>
        <time>2012-06-05T15:01:59Z</time>
      </trkpt>
      <trkpt lat="46.31114" lon="2.94418">
        <ele>463.97</ele>
        <time>2012-06-05T15:02:07Z</time>
      </trkpt>
      <trkpt lat="46.31111" lon="2.94428">
        <ele>464.93</ele>
        <time>2012-06-05T15:02:33Z</time>
      </trkpt>
      <trkpt lat="46.31099" lon="2.9443">
        <ele>466.38</ele>
        <time>2012-06-05T15:02:46Z</time>
      </trkpt>
      <trkpt lat="46.31088" lon="2.94428">
        <ele>465.9</ele>
        <time>2012-06-05T15:02:56Z</time>
      </trkpt>
      <trkpt lat="46.31077" lon="2.94429">
        <ele>466.86</ele>
        <time>2012-06-05T15:03:05Z</time>
      </trkpt>
      <trkpt lat="46.31067" lon="2.94429">
        <ele>467.34</ele>
        <time>2012-06-05T15:03:14Z</time>
      </trkpt>
      <trkpt lat="46.31058" lon="2.94429">
        <ele>467.34</ele>
        <time>2012-06-05T15:03:22Z</time>
      </trkpt>
      <trkpt lat="46.31049" lon="2.94428">
        <ele>468.3</ele>
        <time>2012-06-05T15:03:30Z</time>
      </trkpt>
      <trkpt lat="46.31039" lon="2.9443">
        <ele>469.26</ele>
        <time>2012-06-05T15:03:39Z</time>
      </trkpt>
      <trkpt lat="46.31029" lon="2.9443">
        <ele>469.74</ele>
        <time>2012-06-05T15:03:47Z</time>
      </trkpt>
      <trkpt lat="46.31019" lon="2.94428">
        <ele>470.7</ele>
        <time>2012-06-05T15:03:55Z</time>
      </trkpt>
      <trkpt lat="46.31009" lon="2.94426">
        <ele>471.18</ele>
        <time>2012-06-05T15:04:04Z</time>
      </trkpt>
      <trkpt lat="46.30999" lon="2.94425">
        <ele>471.66</ele>
        <time>2012-06-05T15:04:13Z</time>
      </trkpt>
      <trkpt lat="46.30989" lon="2.94424">
        <ele>471.66</ele>
        <time>2012-06-05T15:04:36Z</time>
      </trkpt>
      <trkpt lat="46.30979" lon="2.94424">
        <ele>472.14</ele>
        <time>2012-06-05T15:04:44Z</time>
      </trkpt>
      <trkpt lat="46.30966" lon="2.94423">
        <ele>473.11</ele>
        <time>2012-06-05T15:04:57Z</time>
      </trkpt>
      <trkpt lat="46.30954" lon="2.9442">
        <ele>473.11</ele>
        <time>2012-06-05T15:05:04Z</time>
      </trkpt>
      <trkpt lat="46.30942" lon="2.94417">
        <ele>472.63</ele>
        <time>2012-06-05T15:05:12Z</time>
      </trkpt>
      <trkpt lat="46.30931" lon="2.94415">
        <ele>473.11</ele>
        <time>2012-06-05T15:05:21Z</time>
      </trkpt>
      <trkpt lat="46.3092" lon="2.94412">
        <ele>472.14</ele>
        <time>2012-06-05T15:05:30Z</time>
      </trkpt>
      <trkpt lat="46.3091" lon="2.94409">
        <ele>472.14</ele>
        <time>2012-06-05T15:05:40Z</time>
      </trkpt>
      <trkpt lat="46.30901" lon="2.94413">
        <ele>472.63</ele>
        <time>2012-06-05T15:05:50Z</time>
      </trkpt>
      <trkpt lat="46.30892" lon="2.94406">
        <ele>472.63</ele>
        <time>2012-06-05T15:06:00Z</time>
      </trkpt>
      <trkpt lat="46.30884" lon="2.94398">
        <ele>472.63</ele>
        <time>2012-06-05T15:06:10Z</time>
      </trkpt>
      <trkpt lat="46.30876" lon="2.9439">
        <ele>472.63</ele>
        <time>2012-06-05T15:06:20Z</time>
      </trkpt>
      <trkpt lat="46.30868" lon="2.94384">
        <ele>472.63</ele>
        <time>2012-06-05T15:06:29Z</time>
      </trkpt>
      <trkpt lat="46.30859" lon="2.94377">
        <ele>472.63</ele>
        <time>2012-06-05T15:06:39Z</time>
      </trkpt>
      <trkpt lat="46.30851" lon="2.9437">
        <ele>472.63</ele>
        <time>2012-06-05T15:06:49Z</time>
      </trkpt>
      <trkpt lat="46.30842" lon="2.94363">
        <ele>472.63</ele>
        <time>2012-06-05T15:06:58Z</time>
      </trkpt>
      <trkpt lat="46.30834" lon="2.94356">
        <ele>475.03</ele>
        <time>2012-06-05T15:07:07Z</time>
      </trkpt>
      <trkpt lat="46.30825" lon="2.94349">
        <ele>475.03</ele>
        <time>2012-06-05T15:07:16Z</time>
      </trkpt>
      <trkpt lat="46.30817" lon="2.94343">
        <ele>475.03</ele>
        <time>2012-06-05T15:07:26Z</time>
      </trkpt>
      <trkpt lat="46.30809" lon="2.94336">
        <ele>475.03</ele>
        <time>2012-06-05T15:07:45Z</time>
      </trkpt>
      <trkpt lat="46.30799" lon="2.94339">
        <ele>475.03</ele>
        <time>2012-06-05T15:07:53Z</time>
      </trkpt>
      <trkpt lat="46.30793" lon="2.9435">
        <ele>474.55</ele>
        <time>2012-06-05T15:08:01Z</time>
      </trkpt>
      <trkpt lat="46.30788" lon="2.94361">
        <ele>474.07</ele>
        <time>2012-06-05T15:08:08Z</time>
      </trkpt>
      <trkpt lat="46.30782" lon="2.94373">
        <ele>474.07</ele>
        <time>2012-06-05T15:08:16Z</time>
      </trkpt>
      <trkpt lat="46.30776" lon="2.94386">
        <ele>474.07</ele>
        <time>2012-06-05T15:08:25Z</time>
      </trkpt>
      <trkpt lat="46.3077" lon="2.94399">
        <ele>473.11</ele>
        <time>2012-06-05T15:08:33Z</time>
      </trkpt>
      <trkpt lat="46.30764" lon="2.94409">
        <ele>473.11</ele>
        <time>2012-06-05T15:08:39Z</time>
      </trkpt>
      <trkpt lat="46.30758" lon="2.94421">
        <ele>472.14</ele>
        <time>2012-06-05T15:08:48Z</time>
      </trkpt>
      <trkpt lat="46.30753" lon="2.94433">
        <ele>471.66</ele>
        <time>2012-06-05T15:08:56Z</time>
      </trkpt>
      <trkpt lat="46.30747" lon="2.94444">
        <ele>471.66</ele>
        <time>2012-06-05T15:09:03Z</time>
      </trkpt>
      <trkpt lat="46.30738" lon="2.9445">
        <ele>470.7</ele>
        <time>2012-06-05T15:09:11Z</time>
      </trkpt>
      <trkpt lat="46.30732" lon="2.94461">
        <ele>470.7</ele>
        <time>2012-06-05T15:09:18Z</time>
      </trkpt>
      <trkpt lat="46.30724" lon="2.94471">
        <ele>470.22</ele>
        <time>2012-06-05T15:09:26Z</time>
      </trkpt>
      <trkpt lat="46.30715" lon="2.9448">
        <ele>470.7</ele>
        <time>2012-06-05T15:09:32Z</time>
      </trkpt>
      <trkpt lat="46.30708" lon="2.94488">
        <ele>470.22</ele>
        <time>2012-06-05T15:09:39Z</time>
      </trkpt>
      <trkpt lat="46.307" lon="2.94495">
        <ele>469.74</ele>
        <time>2012-06-05T15:09:48Z</time>
      </trkpt>
      <trkpt lat="46.30692" lon="2.94505">
        <ele>469.26</ele>
        <time>2012-06-05T15:09:57Z</time>
      </trkpt>
      <trkpt lat="46.30684" lon="2.94511">
        <ele>469.26</ele>
        <time>2012-06-05T15:10:03Z</time>
      </trkpt>
      <trkpt lat="46.30678" lon="2.94519">
        <ele>469.26</ele>
        <time>2012-06-05T15:10:11Z</time>
      </trkpt>
      <trkpt lat="46.3067" lon="2.94527">
        <ele>469.26</ele>
        <time>2012-06-05T15:10:18Z</time>
      </trkpt>
      <trkpt lat="46.30662" lon="2.94534">
        <ele>468.78</ele>
        <time>2012-06-05T15:10:25Z</time>
      </trkpt>
      <trkpt lat="46.30654" lon="2.94541">
        <ele>468.78</ele>
        <time>2012-06-05T15:10:31Z</time>
      </trkpt>
      <trkpt lat="46.30647" lon="2.94548">
        <ele>468.78</ele>
        <time>2012-06-05T15:10:38Z</time>
      </trkpt>
      <trkpt lat="46.3064" lon="2.94555">
        <ele>468.78</ele>
        <time>2012-06-05T15:10:46Z</time>
      </trkpt>
      <trkpt lat="46.30632" lon="2.94564">
        <ele>468.3</ele>
        <time>2012-06-05T15:10:54Z</time>
      </trkpt>
      <trkpt lat="46.30625" lon="2.94572">
        <ele>468.3</ele>
        <time>2012-06-05T15:11:01Z</time>
      </trkpt>
      <trkpt lat="46.30623" lon="2.94583">
        <ele>469.26</ele>
        <time>2012-06-05T15:11:10Z</time>
      </trkpt>
      <trkpt lat="46.30624" lon="2.94596">
        <ele>468.3</ele>
        <time>2012-06-05T15:11:17Z</time>
      </trkpt>
      <trkpt lat="46.30627" lon="2.94612">
        <ele>467.82</ele>
        <time>2012-06-05T15:11:26Z</time>
      </trkpt>
      <trkpt lat="46.30629" lon="2.94626">
        <ele>467.34</ele>
        <time>2012-06-05T15:11:34Z</time>
      </trkpt>
      <trkpt lat="46.30631" lon="2.94638">
        <ele>466.86</ele>
        <time>2012-06-05T15:11:41Z</time>
      </trkpt>
      <trkpt lat="46.30633" lon="2.94652">
        <ele>466.86</ele>
        <time>2012-06-05T15:11:49Z</time>
      </trkpt>
      <trkpt lat="46.30635" lon="2.94668">
        <ele>466.86</ele>
        <time>2012-06-05T15:11:57Z</time>
      </trkpt>
      <trkpt lat="46.30637" lon="2.9468">
        <ele>466.38</ele>
        <time>2012-06-05T15:12:04Z</time>
      </trkpt>
      <trkpt lat="46.3064" lon="2.94693">
        <ele>465.9</ele>
        <time>2012-06-05T15:12:12Z</time>
      </trkpt>
      <trkpt lat="46.30644" lon="2.94705">
        <ele>465.9</ele>
        <time>2012-06-05T15:12:20Z</time>
      </trkpt>
      <trkpt lat="46.30647" lon="2.94718">
        <ele>465.9</ele>
        <time>2012-06-05T15:12:28Z</time>
      </trkpt>
      <trkpt lat="46.30651" lon="2.94732">
        <ele>465.42</ele>
        <time>2012-06-05T15:12:35Z</time>
      </trkpt>
      <trkpt lat="46.30655" lon="2.94744">
        <ele>464.93</ele>
        <time>2012-06-05T15:12:43Z</time>
      </trkpt>
      <trkpt lat="46.30659" lon="2.94755">
        <ele>465.42</ele>
        <time>2012-06-05T15:12:50Z</time>
      </trkpt>
      <trkpt lat="46.30663" lon="2.94768">
        <ele>464.45</ele>
        <time>2012-06-05T15:12:59Z</time>
      </trkpt>
      <trkpt lat="46.30664" lon="2.94781">
        <ele>464.45</ele>
        <time>2012-06-05T15:13:07Z</time>
      </trkpt>
      <trkpt lat="46.30667" lon="2.94795">
        <ele>464.45</ele>
        <time>2012-06-05T15:13:16Z</time>
      </trkpt>
      <trkpt lat="46.30668" lon="2.9481">
        <ele>463.97</ele>
        <time>2012-06-05T15:13:25Z</time>
      </trkpt>
      <trkpt lat="46.30667" lon="2.94823">
        <ele>463.97</ele>
        <time>2012-06-05T15:13:31Z</time>
      </trkpt>
      <trkpt lat="46.30668" lon="2.94836">
        <ele>463.97</ele>
        <time>2012-06-05T15:13:39Z</time>
      </trkpt>
      <trkpt lat="46.30667" lon="2.94849">
        <ele>463.49</ele>
        <time>2012-06-05T15:13:45Z</time>
      </trkpt>
      <trkpt lat="46.30665" lon="2.94863">
        <ele>463.01</ele>
        <time>2012-06-05T15:13:53Z</time>
      </trkpt>
      <trkpt lat="46.30664" lon="2.94877">
        <ele>462.53</ele>
        <time>2012-06-05T15:14:00Z</time>
      </trkpt>
      <trkpt lat="46.30664" lon="2.9489">
        <ele>462.53</ele>
        <time>2012-06-05T15:14:08Z</time>
      </trkpt>
      <trkpt lat="46.30663" lon="2.94903">
        <ele>462.53</ele>
        <time>2012-06-05T15:14:14Z</time>
      </trkpt>
      <trkpt lat="46.30664" lon="2.94916">
        <ele>462.05</ele>
        <time>2012-06-05T15:14:22Z</time>
      </trkpt>
      <trkpt lat="46.30663" lon="2.94929">
        <ele>462.53</ele>
        <time>2012-06-05T15:14:29Z</time>
      </trkpt>
      <trkpt lat="46.30662" lon="2.94944">
        <ele>462.05</ele>
        <time>2012-06-05T15:14:37Z</time>
      </trkpt>
      <trkpt lat="46.30663" lon="2.9496">
        <ele>461.57</ele>
        <time>2012-06-05T15:14:47Z</time>
      </trkpt>
      <trkpt lat="46.30662" lon="2.94977">
        <ele>461.57</ele>
        <time>2012-06-05T15:14:58Z</time>
      </trkpt>
      <trkpt lat="46.30659" lon="2.94993">
        <ele>461.09</ele>
        <time>2012-06-05T15:15:07Z</time>
      </trkpt>
      <trkpt lat="46.30658" lon="2.95006">
        <ele>461.09</ele>
        <time>2012-06-05T15:15:15Z</time>
      </trkpt>
      <trkpt lat="46.30656" lon="2.95018">
        <ele>461.09</ele>
        <time>2012-06-05T15:15:23Z</time>
      </trkpt>
      <trkpt lat="46.30657" lon="2.95032">
        <ele>461.57</ele>
        <time>2012-06-05T15:15:32Z</time>
      </trkpt>
      <trkpt lat="46.30655" lon="2.95047">
        <ele>460.61</ele>
        <time>2012-06-05T15:15:43Z</time>
      </trkpt>
      <trkpt lat="46.30653" lon="2.95061">
        <ele>459.65</ele>
        <time>2012-06-05T15:15:52Z</time>
      </trkpt>
      <trkpt lat="46.30651" lon="2.95078">
        <ele>459.17</ele>
        <time>2012-06-05T15:16:00Z</time>
      </trkpt>
      <trkpt lat="46.3065" lon="2.95094">
        <ele>459.17</ele>
        <time>2012-06-05T15:16:09Z</time>
      </trkpt>
      <trkpt lat="46.30649" lon="2.9511">
        <ele>458.69</ele>
        <time>2012-06-05T15:16:18Z</time>
      </trkpt>
      <trkpt lat="46.30646" lon="2.95123">
        <ele>458.69</ele>
        <time>2012-06-05T15:16:24Z</time>
      </trkpt>
      <trkpt lat="46.30644" lon="2.95137">
        <ele>458.21</ele>
        <time>2012-06-05T15:16:32Z</time>
      </trkpt>
      <trkpt lat="46.30642" lon="2.9515">
        <ele>458.21</ele>
        <time>2012-06-05T15:16:38Z</time>
      </trkpt>
      <trkpt lat="46.3064" lon="2.95164">
        <ele>457.72</ele>
        <time>2012-06-05T15:16:47Z</time>
      </trkpt>
      <trkpt lat="46.30638" lon="2.95177">
        <ele>457.24</ele>
        <time>2012-06-05T15:16:55Z</time>
      </trkpt>
      <trkpt lat="46.30635" lon="2.9519">
        <ele>456.28</ele>
        <time>2012-06-05T15:17:05Z</time>
      </trkpt>
      <trkpt lat="46.30629" lon="2.95203">
        <ele>455.8</ele>
        <time>2012-06-05T15:17:13Z</time>
      </trkpt>
      <trkpt lat="46.30623" lon="2.95217">
        <ele>454.84</ele>
        <time>2012-06-05T15:17:22Z</time>
      </trkpt>
      <trkpt lat="46.30616" lon="2.9523">
        <ele>454.36</ele>
        <time>2012-06-05T15:17:31Z</time>
      </trkpt>
      <trkpt lat="46.30609" lon="2.95242">
        <ele>454.36</ele>
        <time>2012-06-05T15:17:40Z</time>
      </trkpt>
      <trkpt lat="46.30603" lon="2.95252">
        <ele>453.4</ele>
        <time>2012-06-05T15:17:46Z</time>
      </trkpt>
      <trkpt lat="46.30595" lon="2.95263">
        <ele>452.92</ele>
        <time>2012-06-05T15:17:55Z</time>
      </trkpt>
      <trkpt lat="46.30589" lon="2.95275">
        <ele>453.4</ele>
        <time>2012-06-05T15:18:03Z</time>
      </trkpt>
      <trkpt lat="46.30581" lon="2.95287">
        <ele>452.92</ele>
        <time>2012-06-05T15:18:10Z</time>
      </trkpt>
      <trkpt lat="46.30576" lon="2.95299">
        <ele>453.4</ele>
        <time>2012-06-05T15:18:18Z</time>
      </trkpt>
      <trkpt lat="46.30571" lon="2.9531">
        <ele>452.92</ele>
        <time>2012-06-05T15:18:23Z</time>
      </trkpt>
      <trkpt lat="46.30567" lon="2.95321">
        <ele>452.92</ele>
        <time>2012-06-05T15:18:31Z</time>
      </trkpt>
      <trkpt lat="46.30562" lon="2.95331">
        <ele>452.92</ele>
        <time>2012-06-05T15:18:37Z</time>
      </trkpt>
      <trkpt lat="46.30557" lon="2.95344">
        <ele>452.44</ele>
        <time>2012-06-05T15:18:46Z</time>
      </trkpt>
      <trkpt lat="46.30551" lon="2.95356">
        <ele>451.96</ele>
        <time>2012-06-05T15:18:52Z</time>
      </trkpt>
      <trkpt lat="46.30547" lon="2.95367">
        <ele>451.96</ele>
        <time>2012-06-05T15:19:01Z</time>
      </trkpt>
      <trkpt lat="46.30542" lon="2.95379">
        <ele>451.96</ele>
        <time>2012-06-05T15:19:09Z</time>
      </trkpt>
      <trkpt lat="46.30536" lon="2.95393">
        <ele>451.96</ele>
        <time>2012-06-05T15:19:18Z</time>
      </trkpt>
      <trkpt lat="46.30531" lon="2.95407">
        <ele>451.48</ele>
        <time>2012-06-05T15:19:27Z</time>
      </trkpt>
      <trkpt lat="46.30526" lon="2.95419">
        <ele>451.48</ele>
        <time>2012-06-05T15:19:36Z</time>
      </trkpt>
      <trkpt lat="46.30521" lon="2.95433">
        <ele>451.48</ele>
        <time>2012-06-05T15:19:43Z</time>
      </trkpt>
      <trkpt lat="46.30515" lon="2.95449">
        <ele>450.52</ele>
        <time>2012-06-05T15:19:52Z</time>
      </trkpt>
      <trkpt lat="46.30512" lon="2.95461">
        <ele>450.52</ele>
        <time>2012-06-05T15:19:59Z</time>
      </trkpt>
      <trkpt lat="46.30507" lon="2.95473">
        <ele>450.03</ele>
        <time>2012-06-05T15:20:05Z</time>
      </trkpt>
      <trkpt lat="46.30504" lon="2.95484">
        <ele>450.03</ele>
        <time>2012-06-05T15:20:10Z</time>
      </trkpt>
      <trkpt lat="46.305" lon="2.95496">
        <ele>449.55</ele>
        <time>2012-06-05T15:20:18Z</time>
      </trkpt>
      <trkpt lat="46.30497" lon="2.95507">
        <ele>449.55</ele>
        <time>2012-06-05T15:20:24Z</time>
      </trkpt>
      <trkpt lat="46.30494" lon="2.95519">
        <ele>449.07</ele>
        <time>2012-06-05T15:20:32Z</time>
      </trkpt>
      <trkpt lat="46.30492" lon="2.95533">
        <ele>449.55</ele>
        <time>2012-06-05T15:20:41Z</time>
      </trkpt>
      <trkpt lat="46.30489" lon="2.95548">
        <ele>449.55</ele>
        <time>2012-06-05T15:20:47Z</time>
      </trkpt>
      <trkpt lat="46.30487" lon="2.95561">
        <ele>449.55</ele>
        <time>2012-06-05T15:20:55Z</time>
      </trkpt>
      <trkpt lat="46.30483" lon="2.95572">
        <ele>449.55</ele>
        <time>2012-06-05T15:21:01Z</time>
      </trkpt>
      <trkpt lat="46.3048" lon="2.95585">
        <ele>449.55</ele>
        <time>2012-06-05T15:21:09Z</time>
      </trkpt>
      <trkpt lat="46.30477" lon="2.95598">
        <ele>449.07</ele>
        <time>2012-06-05T15:21:15Z</time>
      </trkpt>
      <trkpt lat="46.30474" lon="2.95611">
        <ele>449.07</ele>
        <time>2012-06-05T15:21:25Z</time>
      </trkpt>
      <trkpt lat="46.3047" lon="2.95624">
        <ele>448.59</ele>
        <time>2012-06-05T15:21:31Z</time>
      </trkpt>
      <trkpt lat="46.30466" lon="2.95637">
        <ele>448.11</ele>
        <time>2012-06-05T15:21:39Z</time>
      </trkpt>
      <trkpt lat="46.30462" lon="2.95648">
        <ele>447.63</ele>
        <time>2012-06-05T15:21:46Z</time>
      </trkpt>
      <trkpt lat="46.30457" lon="2.95662">
        <ele>447.15</ele>
        <time>2012-06-05T15:21:55Z</time>
      </trkpt>
      <trkpt lat="46.30453" lon="2.95676">
        <ele>445.71</ele>
        <time>2012-06-05T15:22:05Z</time>
      </trkpt>
      <trkpt lat="46.3045" lon="2.95691">
        <ele>445.23</ele>
        <time>2012-06-05T15:22:13Z</time>
      </trkpt>
      <trkpt lat="46.30446" lon="2.95706">
        <ele>444.75</ele>
        <time>2012-06-05T15:22:21Z</time>
      </trkpt>
      <trkpt lat="46.30447" lon="2.95722">
        <ele>443.79</ele>
        <time>2012-06-05T15:22:30Z</time>
      </trkpt>
      <trkpt lat="46.30447" lon="2.95737">
        <ele>442.82</ele>
        <time>2012-06-05T15:22:39Z</time>
      </trkpt>
      <trkpt lat="46.30446" lon="2.95754">
        <ele>440.9</ele>
        <time>2012-06-05T15:22:51Z</time>
      </trkpt>
      <trkpt lat="46.30442" lon="2.95773">
        <ele>439.46</ele>
        <time>2012-06-05T15:23:01Z</time>
      </trkpt>
      <trkpt lat="46.30439" lon="2.9579">
        <ele>438.98</ele>
        <time>2012-06-05T15:23:12Z</time>
      </trkpt>
      <trkpt lat="46.30437" lon="2.95808">
        <ele>437.54</ele>
        <time>2012-06-05T15:23:23Z</time>
      </trkpt>
      <trkpt lat="46.30432" lon="2.95826">
        <ele>437.06</ele>
        <time>2012-06-05T15:23:31Z</time>
      </trkpt>
      <trkpt lat="46.30426" lon="2.95845">
        <ele>436.1</ele>
        <time>2012-06-05T15:23:47Z</time>
      </trkpt>
      <trkpt lat="46.30421" lon="2.95861">
        <ele>435.61</ele>
        <time>2012-06-05T15:23:55Z</time>
      </trkpt>
      <trkpt lat="46.30413" lon="2.95873">
        <ele>434.65</ele>
        <time>2012-06-05T15:24:04Z</time>
      </trkpt>
      <trkpt lat="46.30406" lon="2.95885">
        <ele>434.65</ele>
        <time>2012-06-05T15:24:10Z</time>
      </trkpt>
      <trkpt lat="46.30401" lon="2.95897">
        <ele>434.65</ele>
        <time>2012-06-05T15:24:18Z</time>
      </trkpt>
      <trkpt lat="46.30396" lon="2.95907">
        <ele>434.17</ele>
        <time>2012-06-05T15:24:24Z</time>
      </trkpt>
      <trkpt lat="46.3039" lon="2.95919">
        <ele>433.69</ele>
        <time>2012-06-05T15:24:32Z</time>
      </trkpt>
      <trkpt lat="46.30386" lon="2.9593">
        <ele>433.21</ele>
        <time>2012-06-05T15:24:40Z</time>
      </trkpt>
      <trkpt lat="46.3038" lon="2.95942">
        <ele>433.21</ele>
        <time>2012-06-05T15:24:47Z</time>
      </trkpt>
      <trkpt lat="46.30375" lon="2.95955">
        <ele>431.77</ele>
        <time>2012-06-05T15:24:56Z</time>
      </trkpt>
      <trkpt lat="46.3037" lon="2.95965">
        <ele>431.29</ele>
        <time>2012-06-05T15:25:03Z</time>
      </trkpt>
      <trkpt lat="46.30365" lon="2.95977">
        <ele>430.33</ele>
        <time>2012-06-05T15:25:10Z</time>
      </trkpt>
      <trkpt lat="46.30361" lon="2.95989">
        <ele>429.85</ele>
        <time>2012-06-05T15:25:19Z</time>
      </trkpt>
      <trkpt lat="46.30355" lon="2.96005">
        <ele>429.37</ele>
        <time>2012-06-05T15:25:29Z</time>
      </trkpt>
      <trkpt lat="46.3035" lon="2.96019">
        <ele>427.92</ele>
        <time>2012-06-05T15:25:37Z</time>
      </trkpt>
      <trkpt lat="46.30346" lon="2.96035">
        <ele>427.44</ele>
        <time>2012-06-05T15:25:46Z</time>
      </trkpt>
      <trkpt lat="46.30341" lon="2.96046">
        <ele>427.44</ele>
        <time>2012-06-05T15:25:53Z</time>
      </trkpt>
      <trkpt lat="46.30336" lon="2.96059">
        <ele>426.96</ele>
        <time>2012-06-05T15:26:00Z</time>
      </trkpt>
      <trkpt lat="46.30332" lon="2.96073">
        <ele>426</ele>
        <time>2012-06-05T15:26:10Z</time>
      </trkpt>
      <trkpt lat="46.30327" lon="2.96086">
        <ele>425.04</ele>
        <time>2012-06-05T15:26:17Z</time>
      </trkpt>
      <trkpt lat="46.30322" lon="2.96102">
        <ele>424.56</ele>
        <time>2012-06-05T15:26:26Z</time>
      </trkpt>
      <trkpt lat="46.30316" lon="2.96113">
        <ele>424.08</ele>
        <time>2012-06-05T15:26:32Z</time>
      </trkpt>
      <trkpt lat="46.30312" lon="2.96127">
        <ele>424.56</ele>
        <time>2012-06-05T15:26:41Z</time>
      </trkpt>
      <trkpt lat="46.30309" lon="2.96142">
        <ele>424.08</ele>
        <time>2012-06-05T15:26:50Z</time>
      </trkpt>
      <trkpt lat="46.30304" lon="2.96155">
        <ele>424.08</ele>
        <time>2012-06-05T15:26:57Z</time>
      </trkpt>
      <trkpt lat="46.30299" lon="2.9617">
        <ele>423.12</ele>
        <time>2012-06-05T15:27:06Z</time>
      </trkpt>
      <trkpt lat="46.30295" lon="2.96183">
        <ele>422.16</ele>
        <time>2012-06-05T15:27:15Z</time>
      </trkpt>
      <trkpt lat="46.3029" lon="2.96198">
        <ele>421.68</ele>
        <time>2012-06-05T15:27:23Z</time>
      </trkpt>
      <trkpt lat="46.30285" lon="2.96211">
        <ele>420.23</ele>
        <time>2012-06-05T15:27:33Z</time>
      </trkpt>
      <trkpt lat="46.30279" lon="2.96224">
        <ele>420.23</ele>
        <time>2012-06-05T15:27:41Z</time>
      </trkpt>
      <trkpt lat="46.30273" lon="2.96236">
        <ele>419.75</ele>
        <time>2012-06-05T15:27:49Z</time>
      </trkpt>
      <trkpt lat="46.30264" lon="2.96247">
        <ele>419.75</ele>
        <time>2012-06-05T15:27:57Z</time>
      </trkpt>
      <trkpt lat="46.30259" lon="2.96259">
        <ele>419.27</ele>
        <time>2012-06-05T15:28:05Z</time>
      </trkpt>
      <trkpt lat="46.30261" lon="2.9628">
        <ele>418.79</ele>
        <time>2012-06-05T15:28:17Z</time>
      </trkpt>
      <trkpt lat="46.30253" lon="2.96294">
        <ele>418.31</ele>
        <time>2012-06-05T15:28:45Z</time>
      </trkpt>
      <trkpt lat="46.3024" lon="2.96295">
        <ele>417.83</ele>
        <time>2012-06-05T15:29:01Z</time>
      </trkpt>
      <trkpt lat="46.30225" lon="2.96292">
        <ele>418.79</ele>
        <time>2012-06-05T15:29:20Z</time>
      </trkpt>
      <trkpt lat="46.30213" lon="2.96292">
        <ele>417.83</ele>
        <time>2012-06-05T15:29:30Z</time>
      </trkpt>
      <trkpt lat="46.30203" lon="2.96293">
        <ele>417.83</ele>
        <time>2012-06-05T15:29:39Z</time>
      </trkpt>
      <trkpt lat="46.30191" lon="2.96297">
        <ele>418.79</ele>
        <time>2012-06-05T15:29:49Z</time>
      </trkpt>
      <trkpt lat="46.30182" lon="2.96304">
        <ele>418.79</ele>
        <time>2012-06-05T15:29:58Z</time>
      </trkpt>
      <trkpt lat="46.30171" lon="2.96308">
        <ele>419.27</ele>
        <time>2012-06-05T15:30:08Z</time>
      </trkpt>
      <trkpt lat="46.30159" lon="2.96307">
        <ele>419.75</ele>
        <time>2012-06-05T15:30:37Z</time>
      </trkpt>
      <trkpt lat="46.30144" lon="2.96303">
        <ele>421.19</ele>
        <time>2012-06-05T15:30:48Z</time>
      </trkpt>
      <trkpt lat="46.3013" lon="2.96296">
        <ele>422.64</ele>
        <time>2012-06-05T15:31:01Z</time>
      </trkpt>
      <trkpt lat="46.3012" lon="2.96292">
        <ele>423.12</ele>
        <time>2012-06-05T15:31:11Z</time>
      </trkpt>
      <trkpt lat="46.30113" lon="2.96287">
        <ele>424.08</ele>
        <time>2012-06-05T15:32:12Z</time>
      </trkpt>
      <trkpt lat="46.30103" lon="2.96285">
        <ele>424.56</ele>
        <time>2012-06-05T15:32:27Z</time>
      </trkpt>
      <trkpt lat="46.30089" lon="2.96281">
        <ele>425.04</ele>
        <time>2012-06-05T15:32:36Z</time>
      </trkpt>
      <trkpt lat="46.30078" lon="2.96278">
        <ele>425.52</ele>
        <time>2012-06-05T15:32:43Z</time>
      </trkpt>
      <trkpt lat="46.30063" lon="2.96274">
        <ele>425.52</ele>
        <time>2012-06-05T15:32:54Z</time>
      </trkpt>
      <trkpt lat="46.30046" lon="2.9627">
        <ele>426</ele>
        <time>2012-06-05T15:33:02Z</time>
      </trkpt>
      <trkpt lat="46.30034" lon="2.96266">
        <ele>426.48</ele>
        <time>2012-06-05T15:33:09Z</time>
      </trkpt>
      <trkpt lat="46.30015" lon="2.96259">
        <ele>426.96</ele>
        <time>2012-06-05T15:33:27Z</time>
      </trkpt>
      <trkpt lat="46.3" lon="2.96256">
        <ele>427.44</ele>
        <time>2012-06-05T15:33:37Z</time>
      </trkpt>
      <trkpt lat="46.2999" lon="2.96251">
        <ele>426.96</ele>
        <time>2012-06-05T15:33:44Z</time>
      </trkpt>
      <trkpt lat="46.29979" lon="2.96246">
        <ele>426.96</ele>
        <time>2012-06-05T15:33:51Z</time>
      </trkpt>
      <trkpt lat="46.29964" lon="2.96243">
        <ele>426.96</ele>
        <time>2012-06-05T15:33:59Z</time>
      </trkpt>
      <trkpt lat="46.29945" lon="2.96237">
        <ele>426.96</ele>
        <time>2012-06-05T15:34:15Z</time>
      </trkpt>
      <trkpt lat="46.29932" lon="2.96233">
        <ele>426.48</ele>
        <time>2012-06-05T15:34:23Z</time>
      </trkpt>
      <trkpt lat="46.29919" lon="2.96229">
        <ele>426</ele>
        <time>2012-06-05T15:34:31Z</time>
      </trkpt>
      <trkpt lat="46.29907" lon="2.96224">
        <ele>425.52</ele>
        <time>2012-06-05T15:34:38Z</time>
      </trkpt>
      <trkpt lat="46.29892" lon="2.96221">
        <ele>425.52</ele>
        <time>2012-06-05T15:34:50Z</time>
      </trkpt>
      <trkpt lat="46.29879" lon="2.96218">
        <ele>425.04</ele>
        <time>2012-06-05T15:34:58Z</time>
      </trkpt>
      <trkpt lat="46.29868" lon="2.96213">
        <ele>425.04</ele>
        <time>2012-06-05T15:35:04Z</time>
      </trkpt>
      <trkpt lat="46.29856" lon="2.96209">
        <ele>424.56</ele>
        <time>2012-06-05T15:35:15Z</time>
      </trkpt>
      <trkpt lat="46.2985" lon="2.9621">
        <ele>423.6</ele>
        <time>2012-06-05T15:35:56Z</time>
      </trkpt>
      <trkpt lat="46.29847" lon="2.96208">
        <ele>423.6</ele>
        <time>2012-06-05T15:36:47Z</time>
      </trkpt>
      <trkpt lat="46.29834" lon="2.96203">
        <ele>422.16</ele>
        <time>2012-06-05T15:37:37Z</time>
      </trkpt>
      <trkpt lat="46.29825" lon="2.962">
        <ele>421.68</ele>
        <time>2012-06-05T15:37:58Z</time>
      </trkpt>
      <trkpt lat="46.29812" lon="2.96195">
        <ele>421.68</ele>
        <time>2012-06-05T15:38:06Z</time>
      </trkpt>
      <trkpt lat="46.29797" lon="2.96189">
        <ele>421.19</ele>
        <time>2012-06-05T15:38:18Z</time>
      </trkpt>
      <trkpt lat="46.29786" lon="2.96185">
        <ele>420.23</ele>
        <time>2012-06-05T15:38:26Z</time>
      </trkpt>
      <trkpt lat="46.29773" lon="2.96182">
        <ele>419.75</ele>
        <time>2012-06-05T15:38:35Z</time>
      </trkpt>
      <trkpt lat="46.29761" lon="2.96178">
        <ele>419.75</ele>
        <time>2012-06-05T15:38:45Z</time>
      </trkpt>
      <trkpt lat="46.29748" lon="2.96174">
        <ele>419.27</ele>
        <time>2012-06-05T15:38:53Z</time>
      </trkpt>
      <trkpt lat="46.29733" lon="2.96169">
        <ele>419.27</ele>
        <time>2012-06-05T15:39:05Z</time>
      </trkpt>
      <trkpt lat="46.29721" lon="2.96163">
        <ele>418.79</ele>
        <time>2012-06-05T15:39:15Z</time>
      </trkpt>
      <trkpt lat="46.29711" lon="2.96162">
        <ele>418.31</ele>
        <time>2012-06-05T15:39:22Z</time>
      </trkpt>
      <trkpt lat="46.29699" lon="2.96159">
        <ele>418.31</ele>
        <time>2012-06-05T15:39:30Z</time>
      </trkpt>
      <trkpt lat="46.29686" lon="2.96156">
        <ele>417.83</ele>
        <time>2012-06-05T15:39:42Z</time>
      </trkpt>
      <trkpt lat="46.29672" lon="2.9615">
        <ele>417.35</ele>
        <time>2012-06-05T15:39:52Z</time>
      </trkpt>
      <trkpt lat="46.2966" lon="2.96146">
        <ele>416.87</ele>
        <time>2012-06-05T15:39:59Z</time>
      </trkpt>
      <trkpt lat="46.29651" lon="2.9614">
        <ele>416.87</ele>
        <time>2012-06-05T15:40:06Z</time>
      </trkpt>
      <trkpt lat="46.29639" lon="2.96135">
        <ele>416.87</ele>
        <time>2012-06-05T15:40:20Z</time>
      </trkpt>
      <trkpt lat="46.29626" lon="2.9613">
        <ele>415.91</ele>
        <time>2012-06-05T15:40:29Z</time>
      </trkpt>
      <trkpt lat="46.29614" lon="2.96125">
        <ele>416.39</ele>
        <time>2012-06-05T15:40:36Z</time>
      </trkpt>
      <trkpt lat="46.29597" lon="2.96121">
        <ele>415.91</ele>
        <time>2012-06-05T15:41:07Z</time>
      </trkpt>
      <trkpt lat="46.29584" lon="2.96114">
        <ele>415.91</ele>
        <time>2012-06-05T15:41:15Z</time>
      </trkpt>
      <trkpt lat="46.29573" lon="2.96111">
        <ele>415.91</ele>
        <time>2012-06-05T15:41:22Z</time>
      </trkpt>
      <trkpt lat="46.29558" lon="2.96107">
        <ele>415.91</ele>
        <time>2012-06-05T15:41:36Z</time>
      </trkpt>
      <trkpt lat="46.29547" lon="2.96108">
        <ele>415.91</ele>
        <time>2012-06-05T15:41:44Z</time>
      </trkpt>
      <trkpt lat="46.29537" lon="2.96105">
        <ele>415.43</ele>
        <time>2012-06-05T15:41:52Z</time>
      </trkpt>
      <trkpt lat="46.29526" lon="2.96103">
        <ele>415.43</ele>
        <time>2012-06-05T15:42:00Z</time>
      </trkpt>
      <trkpt lat="46.29516" lon="2.961">
        <ele>415.43</ele>
        <time>2012-06-05T15:42:08Z</time>
      </trkpt>
      <trkpt lat="46.29506" lon="2.96097">
        <ele>415.43</ele>
        <time>2012-06-05T15:42:16Z</time>
      </trkpt>
      <trkpt lat="46.29494" lon="2.96094">
        <ele>414.95</ele>
        <time>2012-06-05T15:42:25Z</time>
      </trkpt>
      <trkpt lat="46.29481" lon="2.96088">
        <ele>414.47</ele>
        <time>2012-06-05T15:42:36Z</time>
      </trkpt>
      <trkpt lat="46.29468" lon="2.96085">
        <ele>414.47</ele>
        <time>2012-06-05T15:42:45Z</time>
      </trkpt>
      <trkpt lat="46.29455" lon="2.96082">
        <ele>413.98</ele>
        <time>2012-06-05T15:42:55Z</time>
      </trkpt>
      <trkpt lat="46.29441" lon="2.96078">
        <ele>413.5</ele>
        <time>2012-06-05T15:43:03Z</time>
      </trkpt>
      <trkpt lat="46.29429" lon="2.96071">
        <ele>413.02</ele>
        <time>2012-06-05T15:43:09Z</time>
      </trkpt>
      <trkpt lat="46.29419" lon="2.96069">
        <ele>413.02</ele>
        <time>2012-06-05T15:43:15Z</time>
      </trkpt>
      <trkpt lat="46.29409" lon="2.96068">
        <ele>412.54</ele>
        <time>2012-06-05T15:43:25Z</time>
      </trkpt>
      <trkpt lat="46.29393" lon="2.96061">
        <ele>412.06</ele>
        <time>2012-06-05T15:43:37Z</time>
      </trkpt>
      <trkpt lat="46.29377" lon="2.96054">
        <ele>411.58</ele>
        <time>2012-06-05T15:43:47Z</time>
      </trkpt>
      <trkpt lat="46.29366" lon="2.9605">
        <ele>411.58</ele>
        <time>2012-06-05T15:43:54Z</time>
      </trkpt>
      <trkpt lat="46.29356" lon="2.96046">
        <ele>412.06</ele>
        <time>2012-06-05T15:44:00Z</time>
      </trkpt>
      <trkpt lat="46.29346" lon="2.96046">
        <ele>412.06</ele>
        <time>2012-06-05T15:44:07Z</time>
      </trkpt>
      <trkpt lat="46.29337" lon="2.96043">
        <ele>412.54</ele>
        <time>2012-06-05T15:44:14Z</time>
      </trkpt>
      <trkpt lat="46.29325" lon="2.96039">
        <ele>412.54</ele>
        <time>2012-06-05T15:44:22Z</time>
      </trkpt>
      <trkpt lat="46.29315" lon="2.96036">
        <ele>413.02</ele>
        <time>2012-06-05T15:44:30Z</time>
      </trkpt>
      <trkpt lat="46.29302" lon="2.96029">
        <ele>413.02</ele>
        <time>2012-06-05T15:44:39Z</time>
      </trkpt>
      <trkpt lat="46.2929" lon="2.96027">
        <ele>412.54</ele>
        <time>2012-06-05T15:44:48Z</time>
      </trkpt>
      <trkpt lat="46.2928" lon="2.96026">
        <ele>413.02</ele>
        <time>2012-06-05T15:44:55Z</time>
      </trkpt>
      <trkpt lat="46.29271" lon="2.96021">
        <ele>413.02</ele>
        <time>2012-06-05T15:45:00Z</time>
      </trkpt>
      <trkpt lat="46.29262" lon="2.96018">
        <ele>413.02</ele>
        <time>2012-06-05T15:45:05Z</time>
      </trkpt>
      <trkpt lat="46.29254" lon="2.96016">
        <ele>412.06</ele>
        <time>2012-06-05T15:45:12Z</time>
      </trkpt>
      <trkpt lat="46.29243" lon="2.96012">
        <ele>411.58</ele>
        <time>2012-06-05T15:45:21Z</time>
      </trkpt>
      <trkpt lat="46.29234" lon="2.96007">
        <ele>411.58</ele>
        <time>2012-06-05T15:45:28Z</time>
      </trkpt>
      <trkpt lat="46.29223" lon="2.96005">
        <ele>411.1</ele>
        <time>2012-06-05T15:45:36Z</time>
      </trkpt>
      <trkpt lat="46.29213" lon="2.96002">
        <ele>410.62</ele>
        <time>2012-06-05T15:45:43Z</time>
      </trkpt>
      <trkpt lat="46.29204" lon="2.95998">
        <ele>410.62</ele>
        <time>2012-06-05T15:45:50Z</time>
      </trkpt>
      <trkpt lat="46.29194" lon="2.95995">
        <ele>410.62</ele>
        <time>2012-06-05T15:45:58Z</time>
      </trkpt>
      <trkpt lat="46.29184" lon="2.95992">
        <ele>410.62</ele>
        <time>2012-06-05T15:46:07Z</time>
      </trkpt>
      <trkpt lat="46.29174" lon="2.95988">
        <ele>408.7</ele>
        <time>2012-06-05T15:46:15Z</time>
      </trkpt>
      <trkpt lat="46.29165" lon="2.95984">
        <ele>408.22</ele>
        <time>2012-06-05T15:46:22Z</time>
      </trkpt>
      <trkpt lat="46.29156" lon="2.95981">
        <ele>408.7</ele>
        <time>2012-06-05T15:46:28Z</time>
      </trkpt>
      <trkpt lat="46.29146" lon="2.95977">
        <ele>409.18</ele>
        <time>2012-06-05T15:46:34Z</time>
      </trkpt>
      <trkpt lat="46.29136" lon="2.95975">
        <ele>409.18</ele>
        <time>2012-06-05T15:46:42Z</time>
      </trkpt>
      <trkpt lat="46.29126" lon="2.95973">
        <ele>408.7</ele>
        <time>2012-06-05T15:46:48Z</time>
      </trkpt>
      <trkpt lat="46.29114" lon="2.95971">
        <ele>409.18</ele>
        <time>2012-06-05T15:46:56Z</time>
      </trkpt>
      <trkpt lat="46.29104" lon="2.95968">
        <ele>408.7</ele>
        <time>2012-06-05T15:47:03Z</time>
      </trkpt>
      <trkpt lat="46.29094" lon="2.95965">
        <ele>407.74</ele>
        <time>2012-06-05T15:47:10Z</time>
      </trkpt>
      <trkpt lat="46.29083" lon="2.9596">
        <ele>407.26</ele>
        <time>2012-06-05T15:47:17Z</time>
      </trkpt>
      <trkpt lat="46.29074" lon="2.95957">
        <ele>406.77</ele>
        <time>2012-06-05T15:47:25Z</time>
      </trkpt>
      <trkpt lat="46.29063" lon="2.95955">
        <ele>405.81</ele>
        <time>2012-06-05T15:47:35Z</time>
      </trkpt>
      <trkpt lat="46.29053" lon="2.95953">
        <ele>404.85</ele>
        <time>2012-06-05T15:47:42Z</time>
      </trkpt>
      <trkpt lat="46.29039" lon="2.95948">
        <ele>404.85</ele>
        <time>2012-06-05T15:47:53Z</time>
      </trkpt>
      <trkpt lat="46.29029" lon="2.95943">
        <ele>404.37</ele>
        <time>2012-06-05T15:48:00Z</time>
      </trkpt>
      <trkpt lat="46.29018" lon="2.95939">
        <ele>403.89</ele>
        <time>2012-06-05T15:48:07Z</time>
      </trkpt>
      <trkpt lat="46.29006" lon="2.95936">
        <ele>402.93</ele>
        <time>2012-06-05T15:48:18Z</time>
      </trkpt>
      <trkpt lat="46.28995" lon="2.95934">
        <ele>401.49</ele>
        <time>2012-06-05T15:48:26Z</time>
      </trkpt>
      <trkpt lat="46.28984" lon="2.95929">
        <ele>400.53</ele>
        <time>2012-06-05T15:48:33Z</time>
      </trkpt>
      <trkpt lat="46.28974" lon="2.95922">
        <ele>399.57</ele>
        <time>2012-06-05T15:48:39Z</time>
      </trkpt>
      <trkpt lat="46.28964" lon="2.9592">
        <ele>398.12</ele>
        <time>2012-06-05T15:48:51Z</time>
      </trkpt>
      <trkpt lat="46.28942" lon="2.95913">
        <ele>397.16</ele>
        <time>2012-06-05T15:49:05Z</time>
      </trkpt>
      <trkpt lat="46.28923" lon="2.95907">
        <ele>396.68</ele>
        <time>2012-06-05T15:49:17Z</time>
      </trkpt>
      <trkpt lat="46.28912" lon="2.95903">
        <ele>396.68</ele>
        <time>2012-06-05T15:49:25Z</time>
      </trkpt>
      <trkpt lat="46.28902" lon="2.95899">
        <ele>396.68</ele>
        <time>2012-06-05T15:49:34Z</time>
      </trkpt>
      <trkpt lat="46.2889" lon="2.95895">
        <ele>396.2</ele>
        <time>2012-06-05T15:49:45Z</time>
      </trkpt>
      <trkpt lat="46.2888" lon="2.95891">
        <ele>396.2</ele>
        <time>2012-06-05T15:49:55Z</time>
      </trkpt>
      <trkpt lat="46.28869" lon="2.95888">
        <ele>397.16</ele>
        <time>2012-06-05T15:50:04Z</time>
      </trkpt>
      <trkpt lat="46.28855" lon="2.95884">
        <ele>399.08</ele>
        <time>2012-06-05T15:50:15Z</time>
      </trkpt>
      <trkpt lat="46.28843" lon="2.95879">
        <ele>400.05</ele>
        <time>2012-06-05T15:50:24Z</time>
      </trkpt>
      <trkpt lat="46.2883" lon="2.95875">
        <ele>401.01</ele>
        <time>2012-06-05T15:50:32Z</time>
      </trkpt>
      <trkpt lat="46.28817" lon="2.95872">
        <ele>401.49</ele>
        <time>2012-06-05T15:50:43Z</time>
      </trkpt>
      <trkpt lat="46.28807" lon="2.95868">
        <ele>402.45</ele>
        <time>2012-06-05T15:50:50Z</time>
      </trkpt>
      <trkpt lat="46.28792" lon="2.95864">
        <ele>402.45</ele>
        <time>2012-06-05T15:51:03Z</time>
      </trkpt>
      <trkpt lat="46.28781" lon="2.95861">
        <ele>403.41</ele>
        <time>2012-06-05T15:51:11Z</time>
      </trkpt>
      <trkpt lat="46.28761" lon="2.95856">
        <ele>402.93</ele>
        <time>2012-06-05T15:51:25Z</time>
      </trkpt>
      <trkpt lat="46.28742" lon="2.95849">
        <ele>402.45</ele>
        <time>2012-06-05T15:51:36Z</time>
      </trkpt>
      <trkpt lat="46.28723" lon="2.95843">
        <ele>402.45</ele>
        <time>2012-06-05T15:51:53Z</time>
      </trkpt>
      <trkpt lat="46.28703" lon="2.9584">
        <ele>403.41</ele>
        <time>2012-06-05T15:52:04Z</time>
      </trkpt>
      <trkpt lat="46.2869" lon="2.95835">
        <ele>404.85</ele>
        <time>2012-06-05T15:52:16Z</time>
      </trkpt>
      <trkpt lat="46.28677" lon="2.95829">
        <ele>405.81</ele>
        <time>2012-06-05T15:52:26Z</time>
      </trkpt>
      <trkpt lat="46.28662" lon="2.95824">
        <ele>407.74</ele>
        <time>2012-06-05T15:52:36Z</time>
      </trkpt>
      <trkpt lat="46.28645" lon="2.95816">
        <ele>408.7</ele>
        <time>2012-06-05T15:52:50Z</time>
      </trkpt>
      <trkpt lat="46.28628" lon="2.95813">
        <ele>408.22</ele>
        <time>2012-06-05T15:53:05Z</time>
      </trkpt>
      <trkpt lat="46.28612" lon="2.95803">
        <ele>408.7</ele>
        <time>2012-06-05T15:53:16Z</time>
      </trkpt>
      <trkpt lat="46.28588" lon="2.95801">
        <ele>408.22</ele>
        <time>2012-06-05T15:53:34Z</time>
      </trkpt>
      <trkpt lat="46.28571" lon="2.95795">
        <ele>407.74</ele>
        <time>2012-06-05T15:53:44Z</time>
      </trkpt>
      <trkpt lat="46.28558" lon="2.95792">
        <ele>407.74</ele>
        <time>2012-06-05T15:53:55Z</time>
      </trkpt>
      <trkpt lat="46.28548" lon="2.95788">
        <ele>407.74</ele>
        <time>2012-06-05T15:54:06Z</time>
      </trkpt>
      <trkpt lat="46.28537" lon="2.95784">
        <ele>406.77</ele>
        <time>2012-06-05T15:54:14Z</time>
      </trkpt>
      <trkpt lat="46.28523" lon="2.95779">
        <ele>406.77</ele>
        <time>2012-06-05T15:54:22Z</time>
      </trkpt>
      <trkpt lat="46.2851" lon="2.95773">
        <ele>406.29</ele>
        <time>2012-06-05T15:54:30Z</time>
      </trkpt>
      <trkpt lat="46.28499" lon="2.95767">
        <ele>406.29</ele>
        <time>2012-06-05T15:54:39Z</time>
      </trkpt>
      <trkpt lat="46.28483" lon="2.95759">
        <ele>406.29</ele>
        <time>2012-06-05T15:54:49Z</time>
      </trkpt>
      <trkpt lat="46.28467" lon="2.95753">
        <ele>405.33</ele>
        <time>2012-06-05T15:55:01Z</time>
      </trkpt>
      <trkpt lat="46.28447" lon="2.95747">
        <ele>405.33</ele>
        <time>2012-06-05T15:55:18Z</time>
      </trkpt>
      <trkpt lat="46.28428" lon="2.95744">
        <ele>404.85</ele>
        <time>2012-06-05T15:55:29Z</time>
      </trkpt>
      <trkpt lat="46.28415" lon="2.95739">
        <ele>404.85</ele>
        <time>2012-06-05T15:55:39Z</time>
      </trkpt>
      <trkpt lat="46.28405" lon="2.95734">
        <ele>404.37</ele>
        <time>2012-06-05T15:55:46Z</time>
      </trkpt>
      <trkpt lat="46.28394" lon="2.95731">
        <ele>404.37</ele>
        <time>2012-06-05T15:55:55Z</time>
      </trkpt>
      <trkpt lat="46.28381" lon="2.95728">
        <ele>403.89</ele>
        <time>2012-06-05T15:56:05Z</time>
      </trkpt>
      <trkpt lat="46.2837" lon="2.95725">
        <ele>403.41</ele>
        <time>2012-06-05T15:56:13Z</time>
      </trkpt>
      <trkpt lat="46.28359" lon="2.95721">
        <ele>403.41</ele>
        <time>2012-06-05T15:56:21Z</time>
      </trkpt>
      <trkpt lat="46.28348" lon="2.95715">
        <ele>403.41</ele>
        <time>2012-06-05T15:56:30Z</time>
      </trkpt>
      <trkpt lat="46.28339" lon="2.95703">
        <ele>403.41</ele>
        <time>2012-06-05T15:56:49Z</time>
      </trkpt>
      <trkpt lat="46.28334" lon="2.95701">
        <ele>403.41</ele>
        <time>2012-06-05T15:57:14Z</time>
      </trkpt>
    </trkseg>
  </trk>
</gpx>